<?xml version="1.0" encoding="UTF-8" standalone="no" ?>
<gpx xmlns="http://www.topografix.com/GPX/1/1" xmlns:xsi="http://www.w3.org/2001/XMLSchema-instance" xsi:schemaLocation="http://www.topografix.com/GPX/1/1 http://www.topografix.com/GPX/1/1/gpx.xsd" version="1.1" creator="VisuGPX - https://www.visugpx.com">
  <metadata>
    <name>2019-05-18 08:42:55</name>
    <desc><![CDATA[

]]></desc>
  </metadata>
  <trk>
    <name><![CDATA[2019-05-18 08:42:55]]></name>
    <trkseg>
      <trkpt lat="39.71483" lon="-8.54494">
        <ele>143.85</ele>
        <time>2019-05-17T13:12:32Z</time>
      </trkpt>
      <trkpt lat="39.71484" lon="-8.54492">
        <ele>143.85</ele>
        <time>2019-05-17T13:12:33Z</time>
      </trkpt>
      <trkpt lat="39.71485" lon="-8.5449">
        <ele>148.66</ele>
        <time>2019-05-17T13:12:37Z</time>
      </trkpt>
      <trkpt lat="39.71485" lon="-8.5449">
        <ele>148.66</ele>
        <time>2019-05-17T13:12:39Z</time>
      </trkpt>
      <trkpt lat="39.71484" lon="-8.54489">
        <ele>148.66</ele>
        <time>2019-05-17T13:12:40Z</time>
      </trkpt>
      <trkpt lat="39.71539" lon="-8.54495">
        <ele>158.75</ele>
        <time>2019-05-17T14:49:04Z</time>
      </trkpt>
      <trkpt lat="39.71512" lon="-8.54522">
        <ele>157.79</ele>
        <time>2019-05-17T14:49:41Z</time>
      </trkpt>
      <trkpt lat="39.715" lon="-8.54533">
        <ele>158.75</ele>
        <time>2019-05-17T14:50:20Z</time>
      </trkpt>
      <trkpt lat="39.71497" lon="-8.54528">
        <ele>158.75</ele>
        <time>2019-05-17T14:50:54Z</time>
      </trkpt>
      <trkpt lat="39.71495" lon="-8.54527">
        <ele>162.6</ele>
        <time>2019-05-17T14:51:16Z</time>
      </trkpt>
      <trkpt lat="39.71494" lon="-8.54527">
        <ele>165.48</ele>
        <time>2019-05-17T14:51:25Z</time>
      </trkpt>
      <trkpt lat="39.71494" lon="-8.54527">
        <ele>168.85</ele>
        <time>2019-05-17T14:51:32Z</time>
      </trkpt>
      <trkpt lat="39.71493" lon="-8.54525">
        <ele>172.21</ele>
        <time>2019-05-17T14:51:44Z</time>
      </trkpt>
      <trkpt lat="39.71493" lon="-8.54526">
        <ele>175.1</ele>
        <time>2019-05-17T14:51:57Z</time>
      </trkpt>
      <trkpt lat="39.71493" lon="-8.54528">
        <ele>178.46</ele>
        <time>2019-05-17T14:52:15Z</time>
      </trkpt>
      <trkpt lat="39.71493" lon="-8.54529">
        <ele>179.9</ele>
        <time>2019-05-17T14:52:48Z</time>
      </trkpt>
      <trkpt lat="39.71489" lon="-8.54518">
        <ele>179.9</ele>
        <time>2019-05-17T14:53:22Z</time>
      </trkpt>
      <trkpt lat="39.71485" lon="-8.54513">
        <ele>179.42</ele>
        <time>2019-05-17T14:53:52Z</time>
      </trkpt>
      <trkpt lat="39.71488" lon="-8.54531">
        <ele>180.38</ele>
        <time>2019-05-17T14:54:22Z</time>
      </trkpt>
      <trkpt lat="39.71493" lon="-8.54529">
        <ele>179.42</ele>
        <time>2019-05-17T14:54:48Z</time>
      </trkpt>
      <trkpt lat="39.71489" lon="-8.54538">
        <ele>179.9</ele>
        <time>2019-05-17T14:55:14Z</time>
      </trkpt>
      <trkpt lat="39.71497" lon="-8.54535">
        <ele>180.38</ele>
        <time>2019-05-17T14:55:45Z</time>
      </trkpt>
      <trkpt lat="39.71498" lon="-8.54533">
        <ele>179.9</ele>
        <time>2019-05-17T14:56:18Z</time>
      </trkpt>
      <trkpt lat="39.71491" lon="-8.54541">
        <ele>179.42</ele>
        <time>2019-05-17T14:56:53Z</time>
      </trkpt>
      <trkpt lat="39.71494" lon="-8.54545">
        <ele>178.46</ele>
        <time>2019-05-17T14:57:30Z</time>
      </trkpt>
      <trkpt lat="39.71493" lon="-8.5455">
        <ele>178.46</ele>
        <time>2019-05-17T14:58:07Z</time>
      </trkpt>
      <trkpt lat="39.71494" lon="-8.54548">
        <ele>177.98</ele>
        <time>2019-05-17T14:58:52Z</time>
      </trkpt>
      <trkpt lat="39.71498" lon="-8.54541">
        <ele>177.02</ele>
        <time>2019-05-17T14:59:42Z</time>
      </trkpt>
      <trkpt lat="39.71502" lon="-8.54546">
        <ele>177.02</ele>
        <time>2019-05-17T15:00:20Z</time>
      </trkpt>
      <trkpt lat="39.71499" lon="-8.54544">
        <ele>176.06</ele>
        <time>2019-05-17T15:01:04Z</time>
      </trkpt>
      <trkpt lat="39.71505" lon="-8.54546">
        <ele>175.58</ele>
        <time>2019-05-17T15:01:49Z</time>
      </trkpt>
      <trkpt lat="39.71509" lon="-8.54536">
        <ele>174.14</ele>
        <time>2019-05-17T15:02:36Z</time>
      </trkpt>
      <trkpt lat="39.71504" lon="-8.54536">
        <ele>174.14</ele>
        <time>2019-05-17T15:03:28Z</time>
      </trkpt>
      <trkpt lat="39.71504" lon="-8.54546">
        <ele>172.21</ele>
        <time>2019-05-17T15:04:15Z</time>
      </trkpt>
      <trkpt lat="39.71505" lon="-8.54539">
        <ele>172.21</ele>
        <time>2019-05-17T15:04:57Z</time>
      </trkpt>
      <trkpt lat="39.71503" lon="-8.54541">
        <ele>171.73</ele>
        <time>2019-05-17T15:05:40Z</time>
      </trkpt>
      <trkpt lat="39.71502" lon="-8.54547">
        <ele>170.77</ele>
        <time>2019-05-17T15:06:13Z</time>
      </trkpt>
      <trkpt lat="39.71493" lon="-8.54549">
        <ele>170.29</ele>
        <time>2019-05-17T15:06:39Z</time>
      </trkpt>
      <trkpt lat="39.71491" lon="-8.54544">
        <ele>170.77</ele>
        <time>2019-05-17T15:07:05Z</time>
      </trkpt>
      <trkpt lat="39.71495" lon="-8.54546">
        <ele>170.29</ele>
        <time>2019-05-17T15:07:35Z</time>
      </trkpt>
      <trkpt lat="39.71497" lon="-8.54548">
        <ele>169.81</ele>
        <time>2019-05-17T15:08:12Z</time>
      </trkpt>
      <trkpt lat="39.71498" lon="-8.54548">
        <ele>169.81</ele>
        <time>2019-05-17T15:09:02Z</time>
      </trkpt>
      <trkpt lat="39.71493" lon="-8.54548">
        <ele>169.81</ele>
        <time>2019-05-17T15:09:44Z</time>
      </trkpt>
      <trkpt lat="39.71498" lon="-8.54546">
        <ele>168.37</ele>
        <time>2019-05-17T15:10:28Z</time>
      </trkpt>
      <trkpt lat="39.71497" lon="-8.54546">
        <ele>168.85</ele>
        <time>2019-05-17T15:11:18Z</time>
      </trkpt>
      <trkpt lat="39.71497" lon="-8.54545">
        <ele>167.89</ele>
        <time>2019-05-17T15:12:11Z</time>
      </trkpt>
      <trkpt lat="39.71502" lon="-8.54546">
        <ele>167.89</ele>
        <time>2019-05-17T15:12:50Z</time>
      </trkpt>
      <trkpt lat="39.71504" lon="-8.54548">
        <ele>168.37</ele>
        <time>2019-05-17T15:13:25Z</time>
      </trkpt>
      <trkpt lat="39.715" lon="-8.54549">
        <ele>166.45</ele>
        <time>2019-05-17T15:13:56Z</time>
      </trkpt>
      <trkpt lat="39.71496" lon="-8.54541">
        <ele>166.45</ele>
        <time>2019-05-17T15:14:38Z</time>
      </trkpt>
      <trkpt lat="39.71498" lon="-8.54545">
        <ele>164.52</ele>
        <time>2019-05-17T15:15:14Z</time>
      </trkpt>
      <trkpt lat="39.71498" lon="-8.54538">
        <ele>165.48</ele>
        <time>2019-05-17T15:15:53Z</time>
      </trkpt>
      <trkpt lat="39.71498" lon="-8.54535">
        <ele>165.48</ele>
        <time>2019-05-17T15:16:31Z</time>
      </trkpt>
      <trkpt lat="39.715" lon="-8.54531">
        <ele>165.48</ele>
        <time>2019-05-17T15:17:09Z</time>
      </trkpt>
      <trkpt lat="39.71502" lon="-8.54545">
        <ele>165</ele>
        <time>2019-05-17T15:17:46Z</time>
      </trkpt>
      <trkpt lat="39.71501" lon="-8.54546">
        <ele>165</ele>
        <time>2019-05-17T15:18:24Z</time>
      </trkpt>
      <trkpt lat="39.71503" lon="-8.5454">
        <ele>164.52</ele>
        <time>2019-05-17T15:19:02Z</time>
      </trkpt>
      <trkpt lat="39.71508" lon="-8.5455">
        <ele>164.04</ele>
        <time>2019-05-17T15:19:31Z</time>
      </trkpt>
      <trkpt lat="39.71506" lon="-8.54544">
        <ele>163.08</ele>
        <time>2019-05-17T15:20:17Z</time>
      </trkpt>
      <trkpt lat="39.71501" lon="-8.54548">
        <ele>164.04</ele>
        <time>2019-05-17T15:20:53Z</time>
      </trkpt>
      <trkpt lat="39.71505" lon="-8.54554">
        <ele>164.04</ele>
        <time>2019-05-17T15:21:26Z</time>
      </trkpt>
      <trkpt lat="39.71503" lon="-8.54545">
        <ele>163.56</ele>
        <time>2019-05-17T15:22:11Z</time>
      </trkpt>
      <trkpt lat="39.71503" lon="-8.54546">
        <ele>163.08</ele>
        <time>2019-05-17T15:22:48Z</time>
      </trkpt>
      <trkpt lat="39.71505" lon="-8.54545">
        <ele>163.08</ele>
        <time>2019-05-17T15:23:29Z</time>
      </trkpt>
      <trkpt lat="39.71504" lon="-8.54538">
        <ele>162.6</ele>
        <time>2019-05-17T15:24:11Z</time>
      </trkpt>
      <trkpt lat="39.71503" lon="-8.54541">
        <ele>162.6</ele>
        <time>2019-05-17T15:24:49Z</time>
      </trkpt>
      <trkpt lat="39.71499" lon="-8.54535">
        <ele>161.64</ele>
        <time>2019-05-17T15:25:29Z</time>
      </trkpt>
      <trkpt lat="39.715" lon="-8.54541">
        <ele>161.64</ele>
        <time>2019-05-17T15:26:08Z</time>
      </trkpt>
      <trkpt lat="39.71505" lon="-8.54533">
        <ele>161.16</ele>
        <time>2019-05-17T15:26:48Z</time>
      </trkpt>
      <trkpt lat="39.71505" lon="-8.54532">
        <ele>161.16</ele>
        <time>2019-05-17T15:27:24Z</time>
      </trkpt>
      <trkpt lat="39.71497" lon="-8.54525">
        <ele>161.16</ele>
        <time>2019-05-17T15:27:56Z</time>
      </trkpt>
      <trkpt lat="39.71491" lon="-8.54523">
        <ele>160.68</ele>
        <time>2019-05-17T15:28:30Z</time>
      </trkpt>
      <trkpt lat="39.7149" lon="-8.54526">
        <ele>161.16</ele>
        <time>2019-05-17T15:29:06Z</time>
      </trkpt>
      <trkpt lat="39.71493" lon="-8.54527">
        <ele>161.64</ele>
        <time>2019-05-17T15:29:36Z</time>
      </trkpt>
      <trkpt lat="39.71496" lon="-8.54527">
        <ele>161.64</ele>
        <time>2019-05-17T15:30:19Z</time>
      </trkpt>
      <trkpt lat="39.71508" lon="-8.54529">
        <ele>162.12</ele>
        <time>2019-05-17T15:30:56Z</time>
      </trkpt>
      <trkpt lat="39.71509" lon="-8.54528">
        <ele>162.12</ele>
        <time>2019-05-17T15:31:32Z</time>
      </trkpt>
      <trkpt lat="39.71503" lon="-8.54535">
        <ele>162.12</ele>
        <time>2019-05-17T15:32:19Z</time>
      </trkpt>
      <trkpt lat="39.7151" lon="-8.54533">
        <ele>161.64</ele>
        <time>2019-05-17T15:33:05Z</time>
      </trkpt>
      <trkpt lat="39.71503" lon="-8.54538">
        <ele>161.64</ele>
        <time>2019-05-17T15:33:41Z</time>
      </trkpt>
      <trkpt lat="39.71497" lon="-8.5454">
        <ele>161.16</ele>
        <time>2019-05-17T15:34:19Z</time>
      </trkpt>
      <trkpt lat="39.71498" lon="-8.54536">
        <ele>160.2</ele>
        <time>2019-05-17T15:34:54Z</time>
      </trkpt>
      <trkpt lat="39.71504" lon="-8.54539">
        <ele>160.68</ele>
        <time>2019-05-17T15:35:33Z</time>
      </trkpt>
      <trkpt lat="39.71503" lon="-8.54537">
        <ele>160.2</ele>
        <time>2019-05-17T15:36:13Z</time>
      </trkpt>
      <trkpt lat="39.71498" lon="-8.5454">
        <ele>159.24</ele>
        <time>2019-05-17T15:36:47Z</time>
      </trkpt>
      <trkpt lat="39.71501" lon="-8.5454">
        <ele>159.24</ele>
        <time>2019-05-17T15:37:21Z</time>
      </trkpt>
      <trkpt lat="39.715" lon="-8.54535">
        <ele>158.75</ele>
        <time>2019-05-17T15:37:49Z</time>
      </trkpt>
      <trkpt lat="39.71502" lon="-8.54535">
        <ele>159.24</ele>
        <time>2019-05-17T15:38:22Z</time>
      </trkpt>
      <trkpt lat="39.71504" lon="-8.54539">
        <ele>159.24</ele>
        <time>2019-05-17T15:38:49Z</time>
      </trkpt>
      <trkpt lat="39.71506" lon="-8.54545">
        <ele>159.24</ele>
        <time>2019-05-17T15:39:27Z</time>
      </trkpt>
      <trkpt lat="39.71504" lon="-8.54544">
        <ele>159.24</ele>
        <time>2019-05-17T15:40:09Z</time>
      </trkpt>
      <trkpt lat="39.71504" lon="-8.54539">
        <ele>158.27</ele>
        <time>2019-05-17T15:41:01Z</time>
      </trkpt>
      <trkpt lat="39.71502" lon="-8.5454">
        <ele>158.27</ele>
        <time>2019-05-17T15:41:48Z</time>
      </trkpt>
      <trkpt lat="39.71507" lon="-8.54539">
        <ele>157.79</ele>
        <time>2019-05-17T15:42:27Z</time>
      </trkpt>
      <trkpt lat="39.71503" lon="-8.54543">
        <ele>158.27</ele>
        <time>2019-05-17T15:43:08Z</time>
      </trkpt>
      <trkpt lat="39.71506" lon="-8.54545">
        <ele>156.83</ele>
        <time>2019-05-17T15:43:49Z</time>
      </trkpt>
      <trkpt lat="39.71502" lon="-8.54545">
        <ele>156.35</ele>
        <time>2019-05-17T15:44:28Z</time>
      </trkpt>
      <trkpt lat="39.71505" lon="-8.54546">
        <ele>156.83</ele>
        <time>2019-05-17T15:44:57Z</time>
      </trkpt>
      <trkpt lat="39.71507" lon="-8.54541">
        <ele>157.31</ele>
        <time>2019-05-17T15:45:32Z</time>
      </trkpt>
      <trkpt lat="39.71502" lon="-8.5454">
        <ele>156.35</ele>
        <time>2019-05-17T15:46:09Z</time>
      </trkpt>
      <trkpt lat="39.715" lon="-8.54549">
        <ele>155.87</ele>
        <time>2019-05-17T15:46:49Z</time>
      </trkpt>
      <trkpt lat="39.71503" lon="-8.54554">
        <ele>156.83</ele>
        <time>2019-05-17T15:47:25Z</time>
      </trkpt>
      <trkpt lat="39.71504" lon="-8.54546">
        <ele>155.87</ele>
        <time>2019-05-17T15:47:58Z</time>
      </trkpt>
      <trkpt lat="39.71506" lon="-8.54551">
        <ele>155.87</ele>
        <time>2019-05-17T15:48:29Z</time>
      </trkpt>
      <trkpt lat="39.71504" lon="-8.54556">
        <ele>155.87</ele>
        <time>2019-05-17T15:48:50Z</time>
      </trkpt>
      <trkpt lat="39.71504" lon="-8.54536">
        <ele>156.35</ele>
        <time>2019-05-17T15:49:23Z</time>
      </trkpt>
      <trkpt lat="39.71502" lon="-8.54541">
        <ele>154.91</ele>
        <time>2019-05-17T15:49:55Z</time>
      </trkpt>
      <trkpt lat="39.71499" lon="-8.54546">
        <ele>155.39</ele>
        <time>2019-05-17T15:50:21Z</time>
      </trkpt>
      <trkpt lat="39.71511" lon="-8.54533">
        <ele>154.43</ele>
        <time>2019-05-17T15:50:44Z</time>
      </trkpt>
      <trkpt lat="39.71505" lon="-8.54545">
        <ele>155.39</ele>
        <time>2019-05-17T15:51:13Z</time>
      </trkpt>
      <trkpt lat="39.71506" lon="-8.54547">
        <ele>154.91</ele>
        <time>2019-05-17T15:51:57Z</time>
      </trkpt>
      <trkpt lat="39.71504" lon="-8.54549">
        <ele>153.95</ele>
        <time>2019-05-17T15:52:40Z</time>
      </trkpt>
      <trkpt lat="39.71503" lon="-8.54546">
        <ele>153.47</ele>
        <time>2019-05-17T15:53:20Z</time>
      </trkpt>
      <trkpt lat="39.71504" lon="-8.54548">
        <ele>154.43</ele>
        <time>2019-05-17T15:54:05Z</time>
      </trkpt>
      <trkpt lat="39.71505" lon="-8.54544">
        <ele>154.43</ele>
        <time>2019-05-17T15:54:53Z</time>
      </trkpt>
      <trkpt lat="39.71503" lon="-8.5454">
        <ele>153.95</ele>
        <time>2019-05-17T15:55:44Z</time>
      </trkpt>
      <trkpt lat="39.71503" lon="-8.54536">
        <ele>154.91</ele>
        <time>2019-05-17T15:56:35Z</time>
      </trkpt>
      <trkpt lat="39.71499" lon="-8.5454">
        <ele>153.95</ele>
        <time>2019-05-17T15:57:19Z</time>
      </trkpt>
      <trkpt lat="39.71502" lon="-8.5454">
        <ele>153.95</ele>
        <time>2019-05-17T15:57:55Z</time>
      </trkpt>
      <trkpt lat="39.71504" lon="-8.54541">
        <ele>152.99</ele>
        <time>2019-05-17T15:58:32Z</time>
      </trkpt>
      <trkpt lat="39.71504" lon="-8.54538">
        <ele>153.95</ele>
        <time>2019-05-17T15:59:12Z</time>
      </trkpt>
      <trkpt lat="39.71502" lon="-8.54537">
        <ele>152.99</ele>
        <time>2019-05-17T15:59:44Z</time>
      </trkpt>
      <trkpt lat="39.715" lon="-8.54535">
        <ele>153.95</ele>
        <time>2019-05-17T16:00:19Z</time>
      </trkpt>
      <trkpt lat="39.715" lon="-8.54543">
        <ele>153.95</ele>
        <time>2019-05-17T16:00:51Z</time>
      </trkpt>
      <trkpt lat="39.71501" lon="-8.54545">
        <ele>153.47</ele>
        <time>2019-05-17T16:01:20Z</time>
      </trkpt>
      <trkpt lat="39.71501" lon="-8.54545">
        <ele>152.99</ele>
        <time>2019-05-17T16:02:04Z</time>
      </trkpt>
      <trkpt lat="39.71502" lon="-8.54546">
        <ele>152.51</ele>
        <time>2019-05-17T16:02:46Z</time>
      </trkpt>
      <trkpt lat="39.71502" lon="-8.54544">
        <ele>152.51</ele>
        <time>2019-05-17T16:03:29Z</time>
      </trkpt>
      <trkpt lat="39.71499" lon="-8.54545">
        <ele>151.54</ele>
        <time>2019-05-17T16:04:07Z</time>
      </trkpt>
      <trkpt lat="39.71501" lon="-8.54547">
        <ele>152.03</ele>
        <time>2019-05-17T16:04:48Z</time>
      </trkpt>
      <trkpt lat="39.71498" lon="-8.54544">
        <ele>151.06</ele>
        <time>2019-05-17T16:05:29Z</time>
      </trkpt>
      <trkpt lat="39.71497" lon="-8.54543">
        <ele>151.06</ele>
        <time>2019-05-17T16:06:10Z</time>
      </trkpt>
      <trkpt lat="39.71495" lon="-8.54542">
        <ele>151.06</ele>
        <time>2019-05-17T16:06:50Z</time>
      </trkpt>
      <trkpt lat="39.71493" lon="-8.54541">
        <ele>149.62</ele>
        <time>2019-05-17T16:07:38Z</time>
      </trkpt>
      <trkpt lat="39.71491" lon="-8.54538">
        <ele>149.62</ele>
        <time>2019-05-17T16:08:27Z</time>
      </trkpt>
      <trkpt lat="39.71493" lon="-8.54538">
        <ele>149.14</ele>
        <time>2019-05-17T16:09:00Z</time>
      </trkpt>
      <trkpt lat="39.71494" lon="-8.54536">
        <ele>149.14</ele>
        <time>2019-05-17T16:09:34Z</time>
      </trkpt>
      <trkpt lat="39.71496" lon="-8.54538">
        <ele>148.18</ele>
        <time>2019-05-17T16:10:10Z</time>
      </trkpt>
      <trkpt lat="39.71498" lon="-8.54541">
        <ele>148.18</ele>
        <time>2019-05-17T16:10:59Z</time>
      </trkpt>
      <trkpt lat="39.71498" lon="-8.54543">
        <ele>147.7</ele>
        <time>2019-05-17T16:11:42Z</time>
      </trkpt>
      <trkpt lat="39.71498" lon="-8.54544">
        <ele>148.66</ele>
        <time>2019-05-17T16:12:18Z</time>
      </trkpt>
      <trkpt lat="39.71491" lon="-8.54542">
        <ele>146.74</ele>
        <time>2019-05-17T16:12:49Z</time>
      </trkpt>
      <trkpt lat="39.71491" lon="-8.54543">
        <ele>147.7</ele>
        <time>2019-05-17T16:13:20Z</time>
      </trkpt>
      <trkpt lat="39.715" lon="-8.5454">
        <ele>147.7</ele>
        <time>2019-05-17T16:13:59Z</time>
      </trkpt>
      <trkpt lat="39.71507" lon="-8.54539">
        <ele>148.18</ele>
        <time>2019-05-17T16:14:37Z</time>
      </trkpt>
      <trkpt lat="39.71505" lon="-8.54542">
        <ele>147.7</ele>
        <time>2019-05-17T16:15:21Z</time>
      </trkpt>
      <trkpt lat="39.715" lon="-8.54544">
        <ele>147.22</ele>
        <time>2019-05-17T16:16:05Z</time>
      </trkpt>
      <trkpt lat="39.71505" lon="-8.54545">
        <ele>147.7</ele>
        <time>2019-05-17T16:16:46Z</time>
      </trkpt>
      <trkpt lat="39.71501" lon="-8.5455">
        <ele>147.7</ele>
        <time>2019-05-17T16:17:22Z</time>
      </trkpt>
      <trkpt lat="39.715" lon="-8.54545">
        <ele>147.7</ele>
        <time>2019-05-17T16:17:56Z</time>
      </trkpt>
      <trkpt lat="39.71501" lon="-8.54546">
        <ele>146.74</ele>
        <time>2019-05-17T16:18:31Z</time>
      </trkpt>
      <trkpt lat="39.71503" lon="-8.5455">
        <ele>146.74</ele>
        <time>2019-05-17T16:19:04Z</time>
      </trkpt>
      <trkpt lat="39.71501" lon="-8.54548">
        <ele>146.74</ele>
        <time>2019-05-17T16:19:39Z</time>
      </trkpt>
      <trkpt lat="39.71498" lon="-8.54546">
        <ele>146.74</ele>
        <time>2019-05-17T16:20:11Z</time>
      </trkpt>
      <trkpt lat="39.71497" lon="-8.54545">
        <ele>146.74</ele>
        <time>2019-05-17T16:20:45Z</time>
      </trkpt>
      <trkpt lat="39.71493" lon="-8.54545">
        <ele>146.26</ele>
        <time>2019-05-17T16:21:15Z</time>
      </trkpt>
      <trkpt lat="39.71494" lon="-8.54546">
        <ele>145.3</ele>
        <time>2019-05-17T16:21:48Z</time>
      </trkpt>
      <trkpt lat="39.71494" lon="-8.54545">
        <ele>145.3</ele>
        <time>2019-05-17T16:22:26Z</time>
      </trkpt>
      <trkpt lat="39.71493" lon="-8.54549">
        <ele>145.3</ele>
        <time>2019-05-17T16:23:09Z</time>
      </trkpt>
      <trkpt lat="39.71496" lon="-8.54547">
        <ele>145.3</ele>
        <time>2019-05-17T16:23:49Z</time>
      </trkpt>
      <trkpt lat="39.71496" lon="-8.54545">
        <ele>144.82</ele>
        <time>2019-05-17T16:24:23Z</time>
      </trkpt>
      <trkpt lat="39.71491" lon="-8.54538">
        <ele>145.3</ele>
        <time>2019-05-17T16:25:03Z</time>
      </trkpt>
      <trkpt lat="39.71498" lon="-8.54541">
        <ele>143.85</ele>
        <time>2019-05-17T16:25:39Z</time>
      </trkpt>
      <trkpt lat="39.715" lon="-8.54542">
        <ele>143.37</ele>
        <time>2019-05-17T16:26:15Z</time>
      </trkpt>
      <trkpt lat="39.71497" lon="-8.54541">
        <ele>143.85</ele>
        <time>2019-05-17T16:26:48Z</time>
      </trkpt>
      <trkpt lat="39.71503" lon="-8.54545">
        <ele>143.37</ele>
        <time>2019-05-17T16:27:31Z</time>
      </trkpt>
      <trkpt lat="39.71503" lon="-8.54545">
        <ele>143.85</ele>
        <time>2019-05-17T16:28:03Z</time>
      </trkpt>
      <trkpt lat="39.71503" lon="-8.54544">
        <ele>143.85</ele>
        <time>2019-05-17T16:28:47Z</time>
      </trkpt>
      <trkpt lat="39.71504" lon="-8.54548">
        <ele>143.85</ele>
        <time>2019-05-17T16:29:34Z</time>
      </trkpt>
      <trkpt lat="39.71503" lon="-8.54547">
        <ele>143.85</ele>
        <time>2019-05-17T16:30:17Z</time>
      </trkpt>
      <trkpt lat="39.71498" lon="-8.54542">
        <ele>143.85</ele>
        <time>2019-05-17T16:31:01Z</time>
      </trkpt>
      <trkpt lat="39.71499" lon="-8.5454">
        <ele>143.85</ele>
        <time>2019-05-17T16:31:50Z</time>
      </trkpt>
      <trkpt lat="39.71501" lon="-8.54541">
        <ele>143.37</ele>
        <time>2019-05-17T16:32:31Z</time>
      </trkpt>
      <trkpt lat="39.71498" lon="-8.5454">
        <ele>143.37</ele>
        <time>2019-05-17T16:33:14Z</time>
      </trkpt>
      <trkpt lat="39.71499" lon="-8.54545">
        <ele>143.85</ele>
        <time>2019-05-17T16:33:53Z</time>
      </trkpt>
      <trkpt lat="39.71501" lon="-8.54538">
        <ele>143.85</ele>
        <time>2019-05-17T16:34:25Z</time>
      </trkpt>
      <trkpt lat="39.71499" lon="-8.5454">
        <ele>143.85</ele>
        <time>2019-05-17T16:35:04Z</time>
      </trkpt>
      <trkpt lat="39.71499" lon="-8.54544">
        <ele>143.37</ele>
        <time>2019-05-17T16:35:44Z</time>
      </trkpt>
      <trkpt lat="39.71499" lon="-8.54543">
        <ele>143.85</ele>
        <time>2019-05-17T16:36:30Z</time>
      </trkpt>
      <trkpt lat="39.715" lon="-8.54542">
        <ele>142.41</ele>
        <time>2019-05-17T16:37:12Z</time>
      </trkpt>
      <trkpt lat="39.71499" lon="-8.54545">
        <ele>142.89</ele>
        <time>2019-05-17T16:37:50Z</time>
      </trkpt>
      <trkpt lat="39.71502" lon="-8.54549">
        <ele>142.89</ele>
        <time>2019-05-17T16:38:33Z</time>
      </trkpt>
      <trkpt lat="39.71502" lon="-8.54546">
        <ele>141.93</ele>
        <time>2019-05-17T16:39:26Z</time>
      </trkpt>
      <trkpt lat="39.71497" lon="-8.54547">
        <ele>141.93</ele>
        <time>2019-05-17T16:40:12Z</time>
      </trkpt>
      <trkpt lat="39.71499" lon="-8.54543">
        <ele>142.41</ele>
        <time>2019-05-17T16:40:52Z</time>
      </trkpt>
      <trkpt lat="39.71501" lon="-8.54546">
        <ele>142.89</ele>
        <time>2019-05-17T16:41:29Z</time>
      </trkpt>
      <trkpt lat="39.71505" lon="-8.54549">
        <ele>142.89</ele>
        <time>2019-05-17T16:42:08Z</time>
      </trkpt>
      <trkpt lat="39.71502" lon="-8.54544">
        <ele>142.89</ele>
        <time>2019-05-17T16:42:53Z</time>
      </trkpt>
      <trkpt lat="39.715" lon="-8.54543">
        <ele>142.89</ele>
        <time>2019-05-17T16:43:41Z</time>
      </trkpt>
      <trkpt lat="39.71502" lon="-8.54545">
        <ele>143.37</ele>
        <time>2019-05-17T16:44:29Z</time>
      </trkpt>
      <trkpt lat="39.71503" lon="-8.54545">
        <ele>144.34</ele>
        <time>2019-05-17T16:45:09Z</time>
      </trkpt>
      <trkpt lat="39.71502" lon="-8.54546">
        <ele>143.85</ele>
        <time>2019-05-17T16:45:45Z</time>
      </trkpt>
      <trkpt lat="39.71499" lon="-8.54544">
        <ele>143.85</ele>
        <time>2019-05-17T16:46:19Z</time>
      </trkpt>
      <trkpt lat="39.71501" lon="-8.54543">
        <ele>144.34</ele>
        <time>2019-05-17T16:46:59Z</time>
      </trkpt>
      <trkpt lat="39.715" lon="-8.54546">
        <ele>143.85</ele>
        <time>2019-05-17T16:47:37Z</time>
      </trkpt>
      <trkpt lat="39.71507" lon="-8.54549">
        <ele>144.34</ele>
        <time>2019-05-17T16:48:16Z</time>
      </trkpt>
      <trkpt lat="39.71504" lon="-8.54549">
        <ele>144.82</ele>
        <time>2019-05-17T16:49:11Z</time>
      </trkpt>
      <trkpt lat="39.71501" lon="-8.54548">
        <ele>145.3</ele>
        <time>2019-05-17T16:49:59Z</time>
      </trkpt>
      <trkpt lat="39.71499" lon="-8.54548">
        <ele>145.3</ele>
        <time>2019-05-17T16:50:39Z</time>
      </trkpt>
      <trkpt lat="39.71499" lon="-8.54546">
        <ele>144.82</ele>
        <time>2019-05-17T16:51:24Z</time>
      </trkpt>
      <trkpt lat="39.715" lon="-8.54546">
        <ele>145.78</ele>
        <time>2019-05-17T16:52:08Z</time>
      </trkpt>
      <trkpt lat="39.71498" lon="-8.54549">
        <ele>144.34</ele>
        <time>2019-05-17T16:52:56Z</time>
      </trkpt>
      <trkpt lat="39.71495" lon="-8.54545">
        <ele>145.3</ele>
        <time>2019-05-17T16:53:41Z</time>
      </trkpt>
      <trkpt lat="39.71496" lon="-8.54547">
        <ele>145.3</ele>
        <time>2019-05-17T16:54:19Z</time>
      </trkpt>
      <trkpt lat="39.71504" lon="-8.54551">
        <ele>144.82</ele>
        <time>2019-05-17T16:54:54Z</time>
      </trkpt>
      <trkpt lat="39.71505" lon="-8.54545">
        <ele>144.34</ele>
        <time>2019-05-17T16:55:24Z</time>
      </trkpt>
      <trkpt lat="39.71499" lon="-8.54548">
        <ele>144.82</ele>
        <time>2019-05-17T16:55:59Z</time>
      </trkpt>
      <trkpt lat="39.71502" lon="-8.54544">
        <ele>144.82</ele>
        <time>2019-05-17T16:56:43Z</time>
      </trkpt>
      <trkpt lat="39.71505" lon="-8.54547">
        <ele>144.34</ele>
        <time>2019-05-17T16:57:15Z</time>
      </trkpt>
      <trkpt lat="39.71501" lon="-8.54544">
        <ele>145.3</ele>
        <time>2019-05-17T16:57:53Z</time>
      </trkpt>
      <trkpt lat="39.71502" lon="-8.54542">
        <ele>145.3</ele>
        <time>2019-05-17T16:58:33Z</time>
      </trkpt>
      <trkpt lat="39.71494" lon="-8.54538">
        <ele>145.3</ele>
        <time>2019-05-17T16:59:10Z</time>
      </trkpt>
      <trkpt lat="39.71493" lon="-8.54543">
        <ele>145.78</ele>
        <time>2019-05-17T16:59:39Z</time>
      </trkpt>
      <trkpt lat="39.71497" lon="-8.54543">
        <ele>146.26</ele>
        <time>2019-05-17T17:00:09Z</time>
      </trkpt>
      <trkpt lat="39.71496" lon="-8.54542">
        <ele>146.26</ele>
        <time>2019-05-17T17:00:53Z</time>
      </trkpt>
      <trkpt lat="39.71494" lon="-8.54539">
        <ele>145.78</ele>
        <time>2019-05-17T17:01:33Z</time>
      </trkpt>
      <trkpt lat="39.71497" lon="-8.54543">
        <ele>146.26</ele>
        <time>2019-05-17T17:02:05Z</time>
      </trkpt>
      <trkpt lat="39.71502" lon="-8.54548">
        <ele>146.26</ele>
        <time>2019-05-17T17:02:29Z</time>
      </trkpt>
      <trkpt lat="39.71504" lon="-8.54549">
        <ele>145.78</ele>
        <time>2019-05-17T17:03:00Z</time>
      </trkpt>
      <trkpt lat="39.71502" lon="-8.54549">
        <ele>146.26</ele>
        <time>2019-05-17T17:03:30Z</time>
      </trkpt>
      <trkpt lat="39.7151" lon="-8.5455">
        <ele>144.82</ele>
        <time>2019-05-17T17:04:02Z</time>
      </trkpt>
      <trkpt lat="39.71506" lon="-8.54551">
        <ele>144.82</ele>
        <time>2019-05-17T17:04:32Z</time>
      </trkpt>
      <trkpt lat="39.71502" lon="-8.5455">
        <ele>144.82</ele>
        <time>2019-05-17T17:05:09Z</time>
      </trkpt>
      <trkpt lat="39.71503" lon="-8.54547">
        <ele>144.34</ele>
        <time>2019-05-17T17:05:48Z</time>
      </trkpt>
      <trkpt lat="39.71501" lon="-8.54547">
        <ele>143.85</ele>
        <time>2019-05-17T17:06:31Z</time>
      </trkpt>
      <trkpt lat="39.715" lon="-8.54545">
        <ele>143.37</ele>
        <time>2019-05-17T17:07:18Z</time>
      </trkpt>
      <trkpt lat="39.71503" lon="-8.54542">
        <ele>143.37</ele>
        <time>2019-05-17T17:07:48Z</time>
      </trkpt>
      <trkpt lat="39.71498" lon="-8.54541">
        <ele>143.37</ele>
        <time>2019-05-17T17:08:27Z</time>
      </trkpt>
      <trkpt lat="39.71503" lon="-8.54544">
        <ele>142.89</ele>
        <time>2019-05-17T17:09:03Z</time>
      </trkpt>
      <trkpt lat="39.71502" lon="-8.54539">
        <ele>143.37</ele>
        <time>2019-05-17T17:09:40Z</time>
      </trkpt>
      <trkpt lat="39.71498" lon="-8.54537">
        <ele>142.89</ele>
        <time>2019-05-17T17:10:21Z</time>
      </trkpt>
      <trkpt lat="39.71495" lon="-8.54535">
        <ele>142.41</ele>
        <time>2019-05-17T17:11:06Z</time>
      </trkpt>
      <trkpt lat="39.71493" lon="-8.54537">
        <ele>142.89</ele>
        <time>2019-05-17T17:11:51Z</time>
      </trkpt>
      <trkpt lat="39.71493" lon="-8.54538">
        <ele>141.45</ele>
        <time>2019-05-17T17:12:36Z</time>
      </trkpt>
      <trkpt lat="39.71496" lon="-8.54538">
        <ele>141.93</ele>
        <time>2019-05-17T17:13:22Z</time>
      </trkpt>
      <trkpt lat="39.71496" lon="-8.54542">
        <ele>142.41</ele>
        <time>2019-05-17T17:14:00Z</time>
      </trkpt>
      <trkpt lat="39.71496" lon="-8.5454">
        <ele>142.41</ele>
        <time>2019-05-17T17:14:41Z</time>
      </trkpt>
      <trkpt lat="39.71496" lon="-8.54536">
        <ele>142.41</ele>
        <time>2019-05-17T17:15:18Z</time>
      </trkpt>
      <trkpt lat="39.71501" lon="-8.54543">
        <ele>142.89</ele>
        <time>2019-05-17T17:15:59Z</time>
      </trkpt>
      <trkpt lat="39.715" lon="-8.54539">
        <ele>142.41</ele>
        <time>2019-05-17T17:16:49Z</time>
      </trkpt>
      <trkpt lat="39.715" lon="-8.54543">
        <ele>142.89</ele>
        <time>2019-05-17T17:17:41Z</time>
      </trkpt>
      <trkpt lat="39.71499" lon="-8.54537">
        <ele>142.41</ele>
        <time>2019-05-17T17:18:36Z</time>
      </trkpt>
      <trkpt lat="39.715" lon="-8.54539">
        <ele>142.41</ele>
        <time>2019-05-17T17:19:25Z</time>
      </trkpt>
      <trkpt lat="39.71499" lon="-8.54536">
        <ele>142.41</ele>
        <time>2019-05-17T17:20:16Z</time>
      </trkpt>
      <trkpt lat="39.71506" lon="-8.54543">
        <ele>141.93</ele>
        <time>2019-05-17T17:21:08Z</time>
      </trkpt>
      <trkpt lat="39.715" lon="-8.5453">
        <ele>141.93</ele>
        <time>2019-05-17T17:21:51Z</time>
      </trkpt>
      <trkpt lat="39.71502" lon="-8.54539">
        <ele>142.41</ele>
        <time>2019-05-17T17:22:32Z</time>
      </trkpt>
      <trkpt lat="39.71503" lon="-8.54535">
        <ele>142.41</ele>
        <time>2019-05-17T17:23:14Z</time>
      </trkpt>
      <trkpt lat="39.71502" lon="-8.54542">
        <ele>142.41</ele>
        <time>2019-05-17T17:23:53Z</time>
      </trkpt>
      <trkpt lat="39.71499" lon="-8.54542">
        <ele>142.89</ele>
        <time>2019-05-17T17:24:42Z</time>
      </trkpt>
      <trkpt lat="39.715" lon="-8.54547">
        <ele>142.89</ele>
        <time>2019-05-17T17:25:32Z</time>
      </trkpt>
      <trkpt lat="39.71501" lon="-8.54545">
        <ele>142.89</ele>
        <time>2019-05-17T17:26:17Z</time>
      </trkpt>
      <trkpt lat="39.71503" lon="-8.54549">
        <ele>143.37</ele>
        <time>2019-05-17T17:26:59Z</time>
      </trkpt>
      <trkpt lat="39.71503" lon="-8.54546">
        <ele>143.37</ele>
        <time>2019-05-17T17:27:43Z</time>
      </trkpt>
      <trkpt lat="39.71503" lon="-8.54547">
        <ele>142.89</ele>
        <time>2019-05-17T17:28:22Z</time>
      </trkpt>
      <trkpt lat="39.71499" lon="-8.54541">
        <ele>143.37</ele>
        <time>2019-05-17T17:28:59Z</time>
      </trkpt>
      <trkpt lat="39.71496" lon="-8.5454">
        <ele>142.89</ele>
        <time>2019-05-17T17:29:32Z</time>
      </trkpt>
      <trkpt lat="39.71496" lon="-8.54539">
        <ele>142.89</ele>
        <time>2019-05-17T17:29:58Z</time>
      </trkpt>
      <trkpt lat="39.71499" lon="-8.54539">
        <ele>142.89</ele>
        <time>2019-05-17T17:30:29Z</time>
      </trkpt>
      <trkpt lat="39.71499" lon="-8.54544">
        <ele>142.41</ele>
        <time>2019-05-17T17:31:13Z</time>
      </trkpt>
      <trkpt lat="39.715" lon="-8.54547">
        <ele>142.41</ele>
        <time>2019-05-17T17:31:51Z</time>
      </trkpt>
      <trkpt lat="39.71499" lon="-8.54544">
        <ele>142.89</ele>
        <time>2019-05-17T17:32:35Z</time>
      </trkpt>
      <trkpt lat="39.71495" lon="-8.54542">
        <ele>142.41</ele>
        <time>2019-05-17T17:33:12Z</time>
      </trkpt>
      <trkpt lat="39.715" lon="-8.54548">
        <ele>142.41</ele>
        <time>2019-05-17T17:33:46Z</time>
      </trkpt>
      <trkpt lat="39.71494" lon="-8.54542">
        <ele>142.41</ele>
        <time>2019-05-17T17:34:23Z</time>
      </trkpt>
      <trkpt lat="39.71492" lon="-8.54539">
        <ele>142.41</ele>
        <time>2019-05-17T17:35:02Z</time>
      </trkpt>
      <trkpt lat="39.71492" lon="-8.54542">
        <ele>142.41</ele>
        <time>2019-05-17T17:35:35Z</time>
      </trkpt>
      <trkpt lat="39.71493" lon="-8.54548">
        <ele>143.37</ele>
        <time>2019-05-17T17:36:06Z</time>
      </trkpt>
      <trkpt lat="39.71485" lon="-8.54546">
        <ele>142.89</ele>
        <time>2019-05-17T17:36:36Z</time>
      </trkpt>
      <trkpt lat="39.71479" lon="-8.54544">
        <ele>142.89</ele>
        <time>2019-05-17T17:37:08Z</time>
      </trkpt>
      <trkpt lat="39.71484" lon="-8.54542">
        <ele>142.41</ele>
        <time>2019-05-17T17:37:36Z</time>
      </trkpt>
      <trkpt lat="39.71498" lon="-8.54545">
        <ele>142.89</ele>
        <time>2019-05-17T17:38:12Z</time>
      </trkpt>
      <trkpt lat="39.71497" lon="-8.54543">
        <ele>141.93</ele>
        <time>2019-05-17T17:38:50Z</time>
      </trkpt>
      <trkpt lat="39.715" lon="-8.54543">
        <ele>141.93</ele>
        <time>2019-05-17T17:39:26Z</time>
      </trkpt>
      <trkpt lat="39.715" lon="-8.54541">
        <ele>141.93</ele>
        <time>2019-05-17T17:40:03Z</time>
      </trkpt>
      <trkpt lat="39.71501" lon="-8.54545">
        <ele>141.93</ele>
        <time>2019-05-17T17:40:41Z</time>
      </trkpt>
      <trkpt lat="39.715" lon="-8.54546">
        <ele>142.41</ele>
        <time>2019-05-17T17:41:14Z</time>
      </trkpt>
      <trkpt lat="39.71499" lon="-8.54545">
        <ele>142.89</ele>
        <time>2019-05-17T17:41:48Z</time>
      </trkpt>
      <trkpt lat="39.71495" lon="-8.54546">
        <ele>142.41</ele>
        <time>2019-05-17T17:42:23Z</time>
      </trkpt>
      <trkpt lat="39.71503" lon="-8.54548">
        <ele>143.37</ele>
        <time>2019-05-17T17:43:00Z</time>
      </trkpt>
      <trkpt lat="39.71499" lon="-8.54541">
        <ele>143.85</ele>
        <time>2019-05-17T17:43:38Z</time>
      </trkpt>
      <trkpt lat="39.71502" lon="-8.54548">
        <ele>143.85</ele>
        <time>2019-05-17T17:44:16Z</time>
      </trkpt>
      <trkpt lat="39.71503" lon="-8.54549">
        <ele>143.85</ele>
        <time>2019-05-17T17:44:49Z</time>
      </trkpt>
      <trkpt lat="39.71506" lon="-8.54551">
        <ele>144.34</ele>
        <time>2019-05-17T17:45:19Z</time>
      </trkpt>
      <trkpt lat="39.71507" lon="-8.54552">
        <ele>143.37</ele>
        <time>2019-05-17T17:45:49Z</time>
      </trkpt>
      <trkpt lat="39.71507" lon="-8.54551">
        <ele>143.85</ele>
        <time>2019-05-17T17:46:17Z</time>
      </trkpt>
      <trkpt lat="39.71499" lon="-8.54556">
        <ele>144.34</ele>
        <time>2019-05-17T17:46:42Z</time>
      </trkpt>
      <trkpt lat="39.71502" lon="-8.54555">
        <ele>143.85</ele>
        <time>2019-05-17T17:47:02Z</time>
      </trkpt>
      <trkpt lat="39.71501" lon="-8.54552">
        <ele>143.85</ele>
        <time>2019-05-17T17:47:29Z</time>
      </trkpt>
      <trkpt lat="39.71506" lon="-8.54551">
        <ele>143.85</ele>
        <time>2019-05-17T17:48:07Z</time>
      </trkpt>
      <trkpt lat="39.71503" lon="-8.54545">
        <ele>144.34</ele>
        <time>2019-05-17T17:48:41Z</time>
      </trkpt>
      <trkpt lat="39.71504" lon="-8.54549">
        <ele>144.34</ele>
        <time>2019-05-17T17:49:13Z</time>
      </trkpt>
      <trkpt lat="39.71508" lon="-8.54552">
        <ele>144.34</ele>
        <time>2019-05-17T17:49:48Z</time>
      </trkpt>
      <trkpt lat="39.71502" lon="-8.54546">
        <ele>144.34</ele>
        <time>2019-05-17T17:50:24Z</time>
      </trkpt>
      <trkpt lat="39.71505" lon="-8.54549">
        <ele>145.3</ele>
        <time>2019-05-17T17:50:54Z</time>
      </trkpt>
      <trkpt lat="39.71503" lon="-8.54549">
        <ele>145.3</ele>
        <time>2019-05-17T17:51:22Z</time>
      </trkpt>
      <trkpt lat="39.71502" lon="-8.54546">
        <ele>145.3</ele>
        <time>2019-05-17T17:51:57Z</time>
      </trkpt>
      <trkpt lat="39.71503" lon="-8.54552">
        <ele>144.82</ele>
        <time>2019-05-17T17:52:33Z</time>
      </trkpt>
      <trkpt lat="39.71503" lon="-8.54549">
        <ele>144.34</ele>
        <time>2019-05-17T17:53:17Z</time>
      </trkpt>
      <trkpt lat="39.71497" lon="-8.54545">
        <ele>144.82</ele>
        <time>2019-05-17T17:54:02Z</time>
      </trkpt>
      <trkpt lat="39.71496" lon="-8.54548">
        <ele>144.34</ele>
        <time>2019-05-17T17:54:35Z</time>
      </trkpt>
      <trkpt lat="39.71498" lon="-8.54546">
        <ele>144.82</ele>
        <time>2019-05-17T17:55:14Z</time>
      </trkpt>
      <trkpt lat="39.71501" lon="-8.54545">
        <ele>143.37</ele>
        <time>2019-05-17T17:55:51Z</time>
      </trkpt>
      <trkpt lat="39.71501" lon="-8.54548">
        <ele>144.34</ele>
        <time>2019-05-17T17:56:35Z</time>
      </trkpt>
      <trkpt lat="39.71502" lon="-8.54548">
        <ele>144.82</ele>
        <time>2019-05-17T17:57:30Z</time>
      </trkpt>
      <trkpt lat="39.71501" lon="-8.54546">
        <ele>144.34</ele>
        <time>2019-05-17T17:58:17Z</time>
      </trkpt>
      <trkpt lat="39.71501" lon="-8.54544">
        <ele>143.85</ele>
        <time>2019-05-17T17:59:03Z</time>
      </trkpt>
      <trkpt lat="39.715" lon="-8.54543">
        <ele>144.34</ele>
        <time>2019-05-17T17:59:44Z</time>
      </trkpt>
      <trkpt lat="39.71503" lon="-8.54548">
        <ele>144.34</ele>
        <time>2019-05-17T18:00:26Z</time>
      </trkpt>
      <trkpt lat="39.715" lon="-8.54547">
        <ele>144.82</ele>
        <time>2019-05-17T18:01:13Z</time>
      </trkpt>
      <trkpt lat="39.71503" lon="-8.54551">
        <ele>144.34</ele>
        <time>2019-05-17T18:02:00Z</time>
      </trkpt>
      <trkpt lat="39.71505" lon="-8.54551">
        <ele>144.82</ele>
        <time>2019-05-17T18:02:50Z</time>
      </trkpt>
      <trkpt lat="39.71505" lon="-8.54548">
        <ele>145.3</ele>
        <time>2019-05-17T18:03:44Z</time>
      </trkpt>
      <trkpt lat="39.71503" lon="-8.54547">
        <ele>146.26</ele>
        <time>2019-05-17T18:04:35Z</time>
      </trkpt>
      <trkpt lat="39.71499" lon="-8.54547">
        <ele>146.26</ele>
        <time>2019-05-17T18:05:14Z</time>
      </trkpt>
      <trkpt lat="39.71499" lon="-8.54547">
        <ele>146.26</ele>
        <time>2019-05-17T18:05:57Z</time>
      </trkpt>
      <trkpt lat="39.71497" lon="-8.54547">
        <ele>147.22</ele>
        <time>2019-05-17T18:06:35Z</time>
      </trkpt>
      <trkpt lat="39.71501" lon="-8.54551">
        <ele>146.74</ele>
        <time>2019-05-17T18:07:12Z</time>
      </trkpt>
      <trkpt lat="39.71497" lon="-8.54549">
        <ele>147.22</ele>
        <time>2019-05-17T18:07:41Z</time>
      </trkpt>
      <trkpt lat="39.71498" lon="-8.54548">
        <ele>147.22</ele>
        <time>2019-05-17T18:08:06Z</time>
      </trkpt>
      <trkpt lat="39.71496" lon="-8.54546">
        <ele>147.22</ele>
        <time>2019-05-17T18:08:39Z</time>
      </trkpt>
      <trkpt lat="39.71494" lon="-8.54547">
        <ele>146.74</ele>
        <time>2019-05-17T18:09:12Z</time>
      </trkpt>
      <trkpt lat="39.71501" lon="-8.54548">
        <ele>146.26</ele>
        <time>2019-05-17T18:09:51Z</time>
      </trkpt>
      <trkpt lat="39.715" lon="-8.5455">
        <ele>146.26</ele>
        <time>2019-05-17T18:10:17Z</time>
      </trkpt>
      <trkpt lat="39.71501" lon="-8.54553">
        <ele>145.3</ele>
        <time>2019-05-17T18:10:45Z</time>
      </trkpt>
      <trkpt lat="39.71495" lon="-8.54554">
        <ele>145.78</ele>
        <time>2019-05-17T18:11:16Z</time>
      </trkpt>
      <trkpt lat="39.71492" lon="-8.54553">
        <ele>146.26</ele>
        <time>2019-05-17T18:11:55Z</time>
      </trkpt>
      <trkpt lat="39.71496" lon="-8.54549">
        <ele>145.78</ele>
        <time>2019-05-17T18:12:34Z</time>
      </trkpt>
      <trkpt lat="39.71506" lon="-8.54547">
        <ele>145.78</ele>
        <time>2019-05-17T18:13:10Z</time>
      </trkpt>
      <trkpt lat="39.71501" lon="-8.54544">
        <ele>145.78</ele>
        <time>2019-05-17T18:13:43Z</time>
      </trkpt>
      <trkpt lat="39.71512" lon="-8.54544">
        <ele>145.78</ele>
        <time>2019-05-17T18:14:13Z</time>
      </trkpt>
      <trkpt lat="39.71512" lon="-8.54545">
        <ele>145.78</ele>
        <time>2019-05-17T18:14:46Z</time>
      </trkpt>
      <trkpt lat="39.71508" lon="-8.54546">
        <ele>145.78</ele>
        <time>2019-05-17T18:15:22Z</time>
      </trkpt>
      <trkpt lat="39.71504" lon="-8.54543">
        <ele>145.78</ele>
        <time>2019-05-17T18:16:02Z</time>
      </trkpt>
      <trkpt lat="39.71505" lon="-8.54543">
        <ele>145.78</ele>
        <time>2019-05-17T18:16:47Z</time>
      </trkpt>
      <trkpt lat="39.71505" lon="-8.54545">
        <ele>145.78</ele>
        <time>2019-05-17T18:17:32Z</time>
      </trkpt>
      <trkpt lat="39.71502" lon="-8.54542">
        <ele>146.26</ele>
        <time>2019-05-17T18:18:18Z</time>
      </trkpt>
      <trkpt lat="39.71502" lon="-8.54545">
        <ele>145.78</ele>
        <time>2019-05-17T18:19:01Z</time>
      </trkpt>
      <trkpt lat="39.71503" lon="-8.5454">
        <ele>145.3</ele>
        <time>2019-05-17T18:19:38Z</time>
      </trkpt>
      <trkpt lat="39.71502" lon="-8.54537">
        <ele>145.78</ele>
        <time>2019-05-17T18:20:19Z</time>
      </trkpt>
      <trkpt lat="39.71503" lon="-8.54528">
        <ele>145.3</ele>
        <time>2019-05-17T18:21:03Z</time>
      </trkpt>
      <trkpt lat="39.71504" lon="-8.54521">
        <ele>145.78</ele>
        <time>2019-05-17T18:21:46Z</time>
      </trkpt>
      <trkpt lat="39.71501" lon="-8.54528">
        <ele>145.3</ele>
        <time>2019-05-17T18:22:21Z</time>
      </trkpt>
      <trkpt lat="39.71501" lon="-8.54533">
        <ele>146.26</ele>
        <time>2019-05-17T18:23:09Z</time>
      </trkpt>
      <trkpt lat="39.71501" lon="-8.54537">
        <ele>146.26</ele>
        <time>2019-05-17T18:23:56Z</time>
      </trkpt>
      <trkpt lat="39.71503" lon="-8.54541">
        <ele>146.74</ele>
        <time>2019-05-17T18:24:32Z</time>
      </trkpt>
      <trkpt lat="39.71504" lon="-8.54544">
        <ele>145.78</ele>
        <time>2019-05-17T18:25:14Z</time>
      </trkpt>
      <trkpt lat="39.71504" lon="-8.54551">
        <ele>146.26</ele>
        <time>2019-05-17T18:25:59Z</time>
      </trkpt>
      <trkpt lat="39.71504" lon="-8.54547">
        <ele>146.26</ele>
        <time>2019-05-17T18:26:35Z</time>
      </trkpt>
      <trkpt lat="39.71504" lon="-8.54545">
        <ele>146.26</ele>
        <time>2019-05-17T18:27:12Z</time>
      </trkpt>
      <trkpt lat="39.71504" lon="-8.54543">
        <ele>145.78</ele>
        <time>2019-05-17T18:27:45Z</time>
      </trkpt>
      <trkpt lat="39.71505" lon="-8.54541">
        <ele>145.78</ele>
        <time>2019-05-17T18:28:25Z</time>
      </trkpt>
      <trkpt lat="39.71507" lon="-8.5454">
        <ele>145.78</ele>
        <time>2019-05-17T18:29:08Z</time>
      </trkpt>
      <trkpt lat="39.71506" lon="-8.54545">
        <ele>145.78</ele>
        <time>2019-05-17T18:29:50Z</time>
      </trkpt>
      <trkpt lat="39.71506" lon="-8.54545">
        <ele>146.26</ele>
        <time>2019-05-17T18:29:52Z</time>
      </trkpt>
      <trkpt lat="39.71506" lon="-8.54549">
        <ele>145.78</ele>
        <time>2019-05-17T18:30:39Z</time>
      </trkpt>
      <trkpt lat="39.71503" lon="-8.54545">
        <ele>146.74</ele>
        <time>2019-05-17T18:31:26Z</time>
      </trkpt>
      <trkpt lat="39.71501" lon="-8.54537">
        <ele>146.26</ele>
        <time>2019-05-17T18:32:06Z</time>
      </trkpt>
      <trkpt lat="39.71502" lon="-8.54531">
        <ele>146.26</ele>
        <time>2019-05-17T18:32:43Z</time>
      </trkpt>
      <trkpt lat="39.71499" lon="-8.54529">
        <ele>146.26</ele>
        <time>2019-05-17T18:33:17Z</time>
      </trkpt>
      <trkpt lat="39.71505" lon="-8.54531">
        <ele>146.26</ele>
        <time>2019-05-17T18:33:45Z</time>
      </trkpt>
      <trkpt lat="39.71504" lon="-8.54536">
        <ele>146.74</ele>
        <time>2019-05-17T18:34:17Z</time>
      </trkpt>
      <trkpt lat="39.71514" lon="-8.54531">
        <ele>146.74</ele>
        <time>2019-05-17T18:34:49Z</time>
      </trkpt>
      <trkpt lat="39.71509" lon="-8.54535">
        <ele>146.74</ele>
        <time>2019-05-17T18:35:16Z</time>
      </trkpt>
      <trkpt lat="39.71507" lon="-8.54537">
        <ele>146.74</ele>
        <time>2019-05-17T18:35:51Z</time>
      </trkpt>
      <trkpt lat="39.71503" lon="-8.54545">
        <ele>147.22</ele>
        <time>2019-05-17T18:36:19Z</time>
      </trkpt>
      <trkpt lat="39.71508" lon="-8.54534">
        <ele>146.74</ele>
        <time>2019-05-17T18:36:51Z</time>
      </trkpt>
      <trkpt lat="39.7151" lon="-8.54529">
        <ele>147.22</ele>
        <time>2019-05-17T18:37:20Z</time>
      </trkpt>
      <trkpt lat="39.7151" lon="-8.5452">
        <ele>146.74</ele>
        <time>2019-05-17T18:37:51Z</time>
      </trkpt>
      <trkpt lat="39.71523" lon="-8.54513">
        <ele>146.74</ele>
        <time>2019-05-17T18:38:18Z</time>
      </trkpt>
      <trkpt lat="39.71528" lon="-8.54518">
        <ele>146.26</ele>
        <time>2019-05-17T18:38:47Z</time>
      </trkpt>
      <trkpt lat="39.71512" lon="-8.54524">
        <ele>146.74</ele>
        <time>2019-05-17T18:39:19Z</time>
      </trkpt>
      <trkpt lat="39.71508" lon="-8.54535">
        <ele>146.74</ele>
        <time>2019-05-17T18:39:53Z</time>
      </trkpt>
      <trkpt lat="39.71505" lon="-8.54539">
        <ele>146.74</ele>
        <time>2019-05-17T18:40:30Z</time>
      </trkpt>
      <trkpt lat="39.71505" lon="-8.54539">
        <ele>146.74</ele>
        <time>2019-05-17T18:41:06Z</time>
      </trkpt>
      <trkpt lat="39.71506" lon="-8.54542">
        <ele>147.22</ele>
        <time>2019-05-17T18:41:40Z</time>
      </trkpt>
      <trkpt lat="39.71505" lon="-8.54541">
        <ele>146.74</ele>
        <time>2019-05-17T18:42:14Z</time>
      </trkpt>
      <trkpt lat="39.71507" lon="-8.54543">
        <ele>147.22</ele>
        <time>2019-05-17T18:42:49Z</time>
      </trkpt>
      <trkpt lat="39.71503" lon="-8.54546">
        <ele>146.74</ele>
        <time>2019-05-17T18:43:24Z</time>
      </trkpt>
      <trkpt lat="39.71504" lon="-8.54543">
        <ele>147.22</ele>
        <time>2019-05-17T18:44:02Z</time>
      </trkpt>
      <trkpt lat="39.71507" lon="-8.5454">
        <ele>147.22</ele>
        <time>2019-05-17T18:44:42Z</time>
      </trkpt>
      <trkpt lat="39.71507" lon="-8.54538">
        <ele>147.22</ele>
        <time>2019-05-17T18:45:13Z</time>
      </trkpt>
      <trkpt lat="39.71508" lon="-8.54536">
        <ele>147.22</ele>
        <time>2019-05-17T18:45:45Z</time>
      </trkpt>
      <trkpt lat="39.71507" lon="-8.54537">
        <ele>147.22</ele>
        <time>2019-05-17T18:46:22Z</time>
      </trkpt>
      <trkpt lat="39.71507" lon="-8.54539">
        <ele>147.22</ele>
        <time>2019-05-17T18:47:05Z</time>
      </trkpt>
      <trkpt lat="39.71506" lon="-8.54543">
        <ele>147.22</ele>
        <time>2019-05-17T18:47:44Z</time>
      </trkpt>
      <trkpt lat="39.71503" lon="-8.54541">
        <ele>147.22</ele>
        <time>2019-05-17T18:48:34Z</time>
      </trkpt>
      <trkpt lat="39.71504" lon="-8.54541">
        <ele>146.74</ele>
        <time>2019-05-17T18:49:23Z</time>
      </trkpt>
      <trkpt lat="39.71503" lon="-8.54543">
        <ele>147.22</ele>
        <time>2019-05-17T18:50:02Z</time>
      </trkpt>
      <trkpt lat="39.715" lon="-8.54545">
        <ele>147.22</ele>
        <time>2019-05-17T18:50:45Z</time>
      </trkpt>
      <trkpt lat="39.71501" lon="-8.5455">
        <ele>146.74</ele>
        <time>2019-05-17T18:51:24Z</time>
      </trkpt>
      <trkpt lat="39.71487" lon="-8.54548">
        <ele>146.74</ele>
        <time>2019-05-17T18:52:01Z</time>
      </trkpt>
      <trkpt lat="39.71494" lon="-8.54548">
        <ele>146.74</ele>
        <time>2019-05-17T18:52:33Z</time>
      </trkpt>
      <trkpt lat="39.71497" lon="-8.54544">
        <ele>146.26</ele>
        <time>2019-05-17T18:53:13Z</time>
      </trkpt>
      <trkpt lat="39.71502" lon="-8.54544">
        <ele>146.26</ele>
        <time>2019-05-17T18:53:51Z</time>
      </trkpt>
      <trkpt lat="39.71505" lon="-8.54544">
        <ele>145.78</ele>
        <time>2019-05-17T18:54:37Z</time>
      </trkpt>
      <trkpt lat="39.71505" lon="-8.54541">
        <ele>146.26</ele>
        <time>2019-05-17T18:55:15Z</time>
      </trkpt>
      <trkpt lat="39.71506" lon="-8.5454">
        <ele>146.26</ele>
        <time>2019-05-17T18:55:45Z</time>
      </trkpt>
      <trkpt lat="39.71511" lon="-8.54542">
        <ele>146.26</ele>
        <time>2019-05-17T18:56:16Z</time>
      </trkpt>
      <trkpt lat="39.71511" lon="-8.54541">
        <ele>146.26</ele>
        <time>2019-05-17T18:56:50Z</time>
      </trkpt>
      <trkpt lat="39.71509" lon="-8.5454">
        <ele>146.74</ele>
        <time>2019-05-17T18:57:31Z</time>
      </trkpt>
      <trkpt lat="39.7151" lon="-8.54542">
        <ele>146.74</ele>
        <time>2019-05-17T18:58:06Z</time>
      </trkpt>
      <trkpt lat="39.71508" lon="-8.54543">
        <ele>147.7</ele>
        <time>2019-05-17T18:58:42Z</time>
      </trkpt>
      <trkpt lat="39.71505" lon="-8.54544">
        <ele>146.74</ele>
        <time>2019-05-17T18:59:17Z</time>
      </trkpt>
      <trkpt lat="39.71503" lon="-8.54545">
        <ele>147.22</ele>
        <time>2019-05-17T18:59:51Z</time>
      </trkpt>
      <trkpt lat="39.71502" lon="-8.54546">
        <ele>147.22</ele>
        <time>2019-05-17T19:00:24Z</time>
      </trkpt>
      <trkpt lat="39.71497" lon="-8.54547">
        <ele>147.7</ele>
        <time>2019-05-17T19:00:57Z</time>
      </trkpt>
      <trkpt lat="39.71494" lon="-8.54547">
        <ele>147.7</ele>
        <time>2019-05-17T19:01:33Z</time>
      </trkpt>
      <trkpt lat="39.71498" lon="-8.54554">
        <ele>147.22</ele>
        <time>2019-05-17T19:02:18Z</time>
      </trkpt>
      <trkpt lat="39.71499" lon="-8.54556">
        <ele>147.7</ele>
        <time>2019-05-17T19:02:55Z</time>
      </trkpt>
      <trkpt lat="39.71499" lon="-8.5455">
        <ele>147.7</ele>
        <time>2019-05-17T19:03:35Z</time>
      </trkpt>
      <trkpt lat="39.71498" lon="-8.54552">
        <ele>147.22</ele>
        <time>2019-05-17T19:04:10Z</time>
      </trkpt>
      <trkpt lat="39.71498" lon="-8.54549">
        <ele>147.22</ele>
        <time>2019-05-17T19:04:43Z</time>
      </trkpt>
      <trkpt lat="39.71498" lon="-8.54552">
        <ele>146.74</ele>
        <time>2019-05-17T19:05:15Z</time>
      </trkpt>
      <trkpt lat="39.71498" lon="-8.54553">
        <ele>146.74</ele>
        <time>2019-05-17T19:05:46Z</time>
      </trkpt>
      <trkpt lat="39.715" lon="-8.54553">
        <ele>146.74</ele>
        <time>2019-05-17T19:06:16Z</time>
      </trkpt>
      <trkpt lat="39.71501" lon="-8.54552">
        <ele>146.26</ele>
        <time>2019-05-17T19:06:50Z</time>
      </trkpt>
      <trkpt lat="39.71497" lon="-8.5455">
        <ele>146.26</ele>
        <time>2019-05-17T19:07:25Z</time>
      </trkpt>
      <trkpt lat="39.715" lon="-8.54545">
        <ele>146.26</ele>
        <time>2019-05-17T19:08:00Z</time>
      </trkpt>
      <trkpt lat="39.71499" lon="-8.5454">
        <ele>146.26</ele>
        <time>2019-05-17T19:08:35Z</time>
      </trkpt>
      <trkpt lat="39.71498" lon="-8.54537">
        <ele>146.26</ele>
        <time>2019-05-17T19:09:14Z</time>
      </trkpt>
      <trkpt lat="39.71499" lon="-8.54539">
        <ele>145.78</ele>
        <time>2019-05-17T19:09:51Z</time>
      </trkpt>
      <trkpt lat="39.71502" lon="-8.54537">
        <ele>146.26</ele>
        <time>2019-05-17T19:10:29Z</time>
      </trkpt>
      <trkpt lat="39.71503" lon="-8.54539">
        <ele>146.26</ele>
        <time>2019-05-17T19:11:03Z</time>
      </trkpt>
      <trkpt lat="39.71501" lon="-8.54543">
        <ele>146.26</ele>
        <time>2019-05-17T19:11:39Z</time>
      </trkpt>
      <trkpt lat="39.71501" lon="-8.54545">
        <ele>146.26</ele>
        <time>2019-05-17T19:12:12Z</time>
      </trkpt>
      <trkpt lat="39.71505" lon="-8.54545">
        <ele>146.26</ele>
        <time>2019-05-17T19:12:52Z</time>
      </trkpt>
      <trkpt lat="39.71509" lon="-8.54534">
        <ele>146.74</ele>
        <time>2019-05-17T19:13:30Z</time>
      </trkpt>
      <trkpt lat="39.71505" lon="-8.54538">
        <ele>146.26</ele>
        <time>2019-05-17T19:14:05Z</time>
      </trkpt>
      <trkpt lat="39.71497" lon="-8.54545">
        <ele>146.74</ele>
        <time>2019-05-17T19:14:46Z</time>
      </trkpt>
      <trkpt lat="39.71497" lon="-8.54549">
        <ele>146.26</ele>
        <time>2019-05-17T19:15:27Z</time>
      </trkpt>
      <trkpt lat="39.71506" lon="-8.54548">
        <ele>145.78</ele>
        <time>2019-05-17T19:16:07Z</time>
      </trkpt>
      <trkpt lat="39.71508" lon="-8.54546">
        <ele>146.26</ele>
        <time>2019-05-17T19:16:47Z</time>
      </trkpt>
      <trkpt lat="39.71502" lon="-8.54545">
        <ele>146.26</ele>
        <time>2019-05-17T19:17:25Z</time>
      </trkpt>
      <trkpt lat="39.71498" lon="-8.54543">
        <ele>146.26</ele>
        <time>2019-05-17T19:18:06Z</time>
      </trkpt>
      <trkpt lat="39.71501" lon="-8.54541">
        <ele>145.78</ele>
        <time>2019-05-17T19:18:47Z</time>
      </trkpt>
      <trkpt lat="39.71505" lon="-8.54541">
        <ele>145.78</ele>
        <time>2019-05-17T19:19:19Z</time>
      </trkpt>
      <trkpt lat="39.71507" lon="-8.54539">
        <ele>145.78</ele>
        <time>2019-05-17T19:19:54Z</time>
      </trkpt>
      <trkpt lat="39.7151" lon="-8.5454">
        <ele>145.3</ele>
        <time>2019-05-17T19:20:32Z</time>
      </trkpt>
      <trkpt lat="39.7151" lon="-8.54542">
        <ele>145.78</ele>
        <time>2019-05-17T19:21:13Z</time>
      </trkpt>
      <trkpt lat="39.71503" lon="-8.54545">
        <ele>145.3</ele>
        <time>2019-05-17T19:21:58Z</time>
      </trkpt>
      <trkpt lat="39.71505" lon="-8.54541">
        <ele>145.78</ele>
        <time>2019-05-17T19:22:35Z</time>
      </trkpt>
      <trkpt lat="39.71508" lon="-8.5454">
        <ele>144.82</ele>
        <time>2019-05-17T19:23:15Z</time>
      </trkpt>
      <trkpt lat="39.71508" lon="-8.54542">
        <ele>144.82</ele>
        <time>2019-05-17T19:23:58Z</time>
      </trkpt>
      <trkpt lat="39.7151" lon="-8.54544">
        <ele>144.82</ele>
        <time>2019-05-17T19:24:39Z</time>
      </trkpt>
      <trkpt lat="39.71503" lon="-8.54548">
        <ele>145.3</ele>
        <time>2019-05-17T19:25:20Z</time>
      </trkpt>
      <trkpt lat="39.71504" lon="-8.54548">
        <ele>145.3</ele>
        <time>2019-05-17T19:26:01Z</time>
      </trkpt>
      <trkpt lat="39.71505" lon="-8.54546">
        <ele>143.85</ele>
        <time>2019-05-17T19:26:44Z</time>
      </trkpt>
      <trkpt lat="39.71504" lon="-8.54544">
        <ele>143.85</ele>
        <time>2019-05-17T19:27:18Z</time>
      </trkpt>
      <trkpt lat="39.71505" lon="-8.54547">
        <ele>143.85</ele>
        <time>2019-05-17T19:27:53Z</time>
      </trkpt>
      <trkpt lat="39.71506" lon="-8.54551">
        <ele>142.89</ele>
        <time>2019-05-17T19:28:30Z</time>
      </trkpt>
      <trkpt lat="39.71505" lon="-8.54548">
        <ele>143.37</ele>
        <time>2019-05-17T19:29:05Z</time>
      </trkpt>
      <trkpt lat="39.715" lon="-8.54551">
        <ele>143.37</ele>
        <time>2019-05-17T19:29:39Z</time>
      </trkpt>
      <trkpt lat="39.71509" lon="-8.54551">
        <ele>142.41</ele>
        <time>2019-05-17T19:30:18Z</time>
      </trkpt>
      <trkpt lat="39.71507" lon="-8.5455">
        <ele>142.89</ele>
        <time>2019-05-17T19:30:58Z</time>
      </trkpt>
      <trkpt lat="39.71507" lon="-8.54551">
        <ele>141.93</ele>
        <time>2019-05-17T19:31:34Z</time>
      </trkpt>
      <trkpt lat="39.71506" lon="-8.54546">
        <ele>141.93</ele>
        <time>2019-05-17T19:32:20Z</time>
      </trkpt>
      <trkpt lat="39.71514" lon="-8.54546">
        <ele>142.89</ele>
        <time>2019-05-17T19:33:02Z</time>
      </trkpt>
      <trkpt lat="39.71514" lon="-8.54546">
        <ele>143.37</ele>
        <time>2019-05-17T19:33:41Z</time>
      </trkpt>
      <trkpt lat="39.71505" lon="-8.54547">
        <ele>142.41</ele>
        <time>2019-05-17T19:34:20Z</time>
      </trkpt>
      <trkpt lat="39.71504" lon="-8.5455">
        <ele>143.37</ele>
        <time>2019-05-17T19:34:57Z</time>
      </trkpt>
      <trkpt lat="39.71506" lon="-8.54547">
        <ele>143.85</ele>
        <time>2019-05-17T19:35:30Z</time>
      </trkpt>
      <trkpt lat="39.71503" lon="-8.54549">
        <ele>143.37</ele>
        <time>2019-05-17T19:36:07Z</time>
      </trkpt>
      <trkpt lat="39.71506" lon="-8.54546">
        <ele>142.89</ele>
        <time>2019-05-17T19:36:49Z</time>
      </trkpt>
      <trkpt lat="39.71504" lon="-8.54547">
        <ele>142.89</ele>
        <time>2019-05-17T19:37:22Z</time>
      </trkpt>
      <trkpt lat="39.71505" lon="-8.54546">
        <ele>142.89</ele>
        <time>2019-05-17T19:37:55Z</time>
      </trkpt>
      <trkpt lat="39.71505" lon="-8.54545">
        <ele>142.41</ele>
        <time>2019-05-17T19:38:39Z</time>
      </trkpt>
      <trkpt lat="39.71502" lon="-8.54544">
        <ele>142.41</ele>
        <time>2019-05-17T19:39:22Z</time>
      </trkpt>
      <trkpt lat="39.71498" lon="-8.54545">
        <ele>142.41</ele>
        <time>2019-05-17T19:40:04Z</time>
      </trkpt>
      <trkpt lat="39.71495" lon="-8.54544">
        <ele>142.41</ele>
        <time>2019-05-17T19:40:37Z</time>
      </trkpt>
      <trkpt lat="39.71493" lon="-8.54542">
        <ele>141.93</ele>
        <time>2019-05-17T19:41:11Z</time>
      </trkpt>
      <trkpt lat="39.71501" lon="-8.54544">
        <ele>141.45</ele>
        <time>2019-05-17T19:41:50Z</time>
      </trkpt>
      <trkpt lat="39.71504" lon="-8.54539">
        <ele>141.45</ele>
        <time>2019-05-17T19:42:25Z</time>
      </trkpt>
      <trkpt lat="39.71504" lon="-8.5454">
        <ele>140.97</ele>
        <time>2019-05-17T19:43:04Z</time>
      </trkpt>
      <trkpt lat="39.71503" lon="-8.54539">
        <ele>140.97</ele>
        <time>2019-05-17T19:43:43Z</time>
      </trkpt>
      <trkpt lat="39.71505" lon="-8.54545">
        <ele>140.97</ele>
        <time>2019-05-17T19:44:17Z</time>
      </trkpt>
      <trkpt lat="39.71501" lon="-8.54537">
        <ele>140.97</ele>
        <time>2019-05-17T19:44:50Z</time>
      </trkpt>
      <trkpt lat="39.71504" lon="-8.54536">
        <ele>141.45</ele>
        <time>2019-05-17T19:45:25Z</time>
      </trkpt>
      <trkpt lat="39.71504" lon="-8.54533">
        <ele>141.45</ele>
        <time>2019-05-17T19:46:04Z</time>
      </trkpt>
      <trkpt lat="39.71509" lon="-8.54532">
        <ele>141.93</ele>
        <time>2019-05-17T19:46:41Z</time>
      </trkpt>
      <trkpt lat="39.71506" lon="-8.54532">
        <ele>142.89</ele>
        <time>2019-05-17T19:47:10Z</time>
      </trkpt>
      <trkpt lat="39.71515" lon="-8.54529">
        <ele>142.89</ele>
        <time>2019-05-17T19:47:43Z</time>
      </trkpt>
      <trkpt lat="39.71512" lon="-8.54529">
        <ele>142.89</ele>
        <time>2019-05-17T19:48:15Z</time>
      </trkpt>
      <trkpt lat="39.71515" lon="-8.54529">
        <ele>142.89</ele>
        <time>2019-05-17T19:48:49Z</time>
      </trkpt>
      <trkpt lat="39.71515" lon="-8.54532">
        <ele>143.85</ele>
        <time>2019-05-17T19:49:26Z</time>
      </trkpt>
      <trkpt lat="39.71505" lon="-8.5453">
        <ele>143.85</ele>
        <time>2019-05-17T19:49:59Z</time>
      </trkpt>
      <trkpt lat="39.71501" lon="-8.54533">
        <ele>144.34</ele>
        <time>2019-05-17T19:50:31Z</time>
      </trkpt>
      <trkpt lat="39.71509" lon="-8.54541">
        <ele>144.82</ele>
        <time>2019-05-17T19:51:06Z</time>
      </trkpt>
      <trkpt lat="39.71504" lon="-8.54541">
        <ele>145.78</ele>
        <time>2019-05-17T19:51:45Z</time>
      </trkpt>
      <trkpt lat="39.71506" lon="-8.54544">
        <ele>145.3</ele>
        <time>2019-05-17T19:52:29Z</time>
      </trkpt>
      <trkpt lat="39.71504" lon="-8.54543">
        <ele>145.78</ele>
        <time>2019-05-17T19:53:10Z</time>
      </trkpt>
      <trkpt lat="39.71508" lon="-8.54541">
        <ele>145.78</ele>
        <time>2019-05-17T19:53:47Z</time>
      </trkpt>
      <trkpt lat="39.71502" lon="-8.54541">
        <ele>145.78</ele>
        <time>2019-05-17T19:54:21Z</time>
      </trkpt>
      <trkpt lat="39.71504" lon="-8.54543">
        <ele>145.78</ele>
        <time>2019-05-17T19:55:01Z</time>
      </trkpt>
      <trkpt lat="39.71502" lon="-8.54543">
        <ele>145.78</ele>
        <time>2019-05-17T19:55:42Z</time>
      </trkpt>
      <trkpt lat="39.71497" lon="-8.54545">
        <ele>145.78</ele>
        <time>2019-05-17T19:56:19Z</time>
      </trkpt>
      <trkpt lat="39.71504" lon="-8.54544">
        <ele>145.3</ele>
        <time>2019-05-17T19:56:57Z</time>
      </trkpt>
      <trkpt lat="39.71502" lon="-8.54546">
        <ele>145.3</ele>
        <time>2019-05-17T19:57:31Z</time>
      </trkpt>
      <trkpt lat="39.71501" lon="-8.54541">
        <ele>144.82</ele>
        <time>2019-05-17T19:58:07Z</time>
      </trkpt>
      <trkpt lat="39.71503" lon="-8.54545">
        <ele>145.3</ele>
        <time>2019-05-17T19:58:45Z</time>
      </trkpt>
      <trkpt lat="39.71497" lon="-8.54541">
        <ele>144.82</ele>
        <time>2019-05-17T19:59:26Z</time>
      </trkpt>
      <trkpt lat="39.71508" lon="-8.54538">
        <ele>144.34</ele>
        <time>2019-05-17T20:00:15Z</time>
      </trkpt>
      <trkpt lat="39.71504" lon="-8.54542">
        <ele>144.34</ele>
        <time>2019-05-17T20:01:00Z</time>
      </trkpt>
      <trkpt lat="39.71507" lon="-8.54541">
        <ele>144.34</ele>
        <time>2019-05-17T20:01:34Z</time>
      </trkpt>
      <trkpt lat="39.71506" lon="-8.54542">
        <ele>144.82</ele>
        <time>2019-05-17T20:02:09Z</time>
      </trkpt>
      <trkpt lat="39.71509" lon="-8.54542">
        <ele>144.34</ele>
        <time>2019-05-17T20:02:44Z</time>
      </trkpt>
      <trkpt lat="39.71512" lon="-8.54541">
        <ele>144.34</ele>
        <time>2019-05-17T20:03:22Z</time>
      </trkpt>
      <trkpt lat="39.7151" lon="-8.54543">
        <ele>144.34</ele>
        <time>2019-05-17T20:03:57Z</time>
      </trkpt>
      <trkpt lat="39.71511" lon="-8.54543">
        <ele>144.82</ele>
        <time>2019-05-17T20:04:28Z</time>
      </trkpt>
      <trkpt lat="39.71513" lon="-8.54541">
        <ele>145.3</ele>
        <time>2019-05-17T20:05:06Z</time>
      </trkpt>
      <trkpt lat="39.71513" lon="-8.54541">
        <ele>145.3</ele>
        <time>2019-05-17T20:05:35Z</time>
      </trkpt>
      <trkpt lat="39.7151" lon="-8.5454">
        <ele>145.78</ele>
        <time>2019-05-17T20:06:09Z</time>
      </trkpt>
      <trkpt lat="39.71507" lon="-8.54541">
        <ele>146.26</ele>
        <time>2019-05-17T20:06:46Z</time>
      </trkpt>
      <trkpt lat="39.71501" lon="-8.54545">
        <ele>146.74</ele>
        <time>2019-05-17T20:07:23Z</time>
      </trkpt>
      <trkpt lat="39.71506" lon="-8.54543">
        <ele>146.74</ele>
        <time>2019-05-17T20:08:08Z</time>
      </trkpt>
      <trkpt lat="39.71506" lon="-8.54544">
        <ele>147.22</ele>
        <time>2019-05-17T20:08:44Z</time>
      </trkpt>
      <trkpt lat="39.71501" lon="-8.54539">
        <ele>146.74</ele>
        <time>2019-05-17T20:09:25Z</time>
      </trkpt>
      <trkpt lat="39.71505" lon="-8.54538">
        <ele>147.22</ele>
        <time>2019-05-17T20:10:06Z</time>
      </trkpt>
      <trkpt lat="39.71507" lon="-8.54543">
        <ele>146.74</ele>
        <time>2019-05-17T20:10:49Z</time>
      </trkpt>
      <trkpt lat="39.71507" lon="-8.54539">
        <ele>146.74</ele>
        <time>2019-05-17T20:11:28Z</time>
      </trkpt>
      <trkpt lat="39.71505" lon="-8.54547">
        <ele>146.74</ele>
        <time>2019-05-17T20:12:10Z</time>
      </trkpt>
      <trkpt lat="39.71507" lon="-8.54539">
        <ele>147.22</ele>
        <time>2019-05-17T20:12:55Z</time>
      </trkpt>
      <trkpt lat="39.71506" lon="-8.54544">
        <ele>147.22</ele>
        <time>2019-05-17T20:13:49Z</time>
      </trkpt>
      <trkpt lat="39.71507" lon="-8.54542">
        <ele>147.22</ele>
        <time>2019-05-17T20:14:33Z</time>
      </trkpt>
      <trkpt lat="39.71508" lon="-8.54546">
        <ele>147.7</ele>
        <time>2019-05-17T20:15:12Z</time>
      </trkpt>
      <trkpt lat="39.71503" lon="-8.5455">
        <ele>147.22</ele>
        <time>2019-05-17T20:15:47Z</time>
      </trkpt>
      <trkpt lat="39.715" lon="-8.54547">
        <ele>147.7</ele>
        <time>2019-05-17T20:16:18Z</time>
      </trkpt>
      <trkpt lat="39.71513" lon="-8.54553">
        <ele>147.22</ele>
        <time>2019-05-17T20:17:00Z</time>
      </trkpt>
      <trkpt lat="39.71512" lon="-8.54545">
        <ele>147.22</ele>
        <time>2019-05-17T20:17:35Z</time>
      </trkpt>
      <trkpt lat="39.71509" lon="-8.54548">
        <ele>147.22</ele>
        <time>2019-05-17T20:18:16Z</time>
      </trkpt>
      <trkpt lat="39.71508" lon="-8.54546">
        <ele>147.7</ele>
        <time>2019-05-17T20:18:59Z</time>
      </trkpt>
      <trkpt lat="39.71508" lon="-8.54546">
        <ele>148.18</ele>
        <time>2019-05-17T20:19:41Z</time>
      </trkpt>
      <trkpt lat="39.71505" lon="-8.54546">
        <ele>148.18</ele>
        <time>2019-05-17T20:20:17Z</time>
      </trkpt>
      <trkpt lat="39.71499" lon="-8.54551">
        <ele>148.18</ele>
        <time>2019-05-17T20:20:52Z</time>
      </trkpt>
      <trkpt lat="39.71504" lon="-8.54546">
        <ele>147.7</ele>
        <time>2019-05-17T20:21:30Z</time>
      </trkpt>
      <trkpt lat="39.71502" lon="-8.54549">
        <ele>148.66</ele>
        <time>2019-05-17T20:22:22Z</time>
      </trkpt>
      <trkpt lat="39.71508" lon="-8.54544">
        <ele>148.18</ele>
        <time>2019-05-17T20:23:05Z</time>
      </trkpt>
      <trkpt lat="39.7151" lon="-8.54545">
        <ele>148.66</ele>
        <time>2019-05-17T20:23:50Z</time>
      </trkpt>
      <trkpt lat="39.71514" lon="-8.54544">
        <ele>148.18</ele>
        <time>2019-05-17T20:24:27Z</time>
      </trkpt>
      <trkpt lat="39.71511" lon="-8.54538">
        <ele>148.18</ele>
        <time>2019-05-17T20:25:08Z</time>
      </trkpt>
      <trkpt lat="39.71509" lon="-8.54534">
        <ele>148.18</ele>
        <time>2019-05-17T20:25:44Z</time>
      </trkpt>
      <trkpt lat="39.71509" lon="-8.5454">
        <ele>148.18</ele>
        <time>2019-05-17T20:26:10Z</time>
      </trkpt>
      <trkpt lat="39.71506" lon="-8.54544">
        <ele>147.7</ele>
        <time>2019-05-17T20:26:44Z</time>
      </trkpt>
      <trkpt lat="39.71505" lon="-8.54548">
        <ele>147.7</ele>
        <time>2019-05-17T20:27:20Z</time>
      </trkpt>
      <trkpt lat="39.71501" lon="-8.5455">
        <ele>147.22</ele>
        <time>2019-05-17T20:27:49Z</time>
      </trkpt>
      <trkpt lat="39.71496" lon="-8.54543">
        <ele>146.74</ele>
        <time>2019-05-17T20:28:19Z</time>
      </trkpt>
      <trkpt lat="39.71503" lon="-8.54549">
        <ele>146.74</ele>
        <time>2019-05-17T20:28:52Z</time>
      </trkpt>
      <trkpt lat="39.715" lon="-8.54548">
        <ele>145.78</ele>
        <time>2019-05-17T20:29:43Z</time>
      </trkpt>
      <trkpt lat="39.71495" lon="-8.54543">
        <ele>145.78</ele>
        <time>2019-05-17T20:30:25Z</time>
      </trkpt>
      <trkpt lat="39.715" lon="-8.54543">
        <ele>145.3</ele>
        <time>2019-05-17T20:30:57Z</time>
      </trkpt>
      <trkpt lat="39.71502" lon="-8.54546">
        <ele>144.82</ele>
        <time>2019-05-17T20:31:32Z</time>
      </trkpt>
      <trkpt lat="39.71505" lon="-8.54546">
        <ele>145.3</ele>
        <time>2019-05-17T20:32:04Z</time>
      </trkpt>
      <trkpt lat="39.71506" lon="-8.5455">
        <ele>144.82</ele>
        <time>2019-05-17T20:32:39Z</time>
      </trkpt>
      <trkpt lat="39.71505" lon="-8.54552">
        <ele>144.82</ele>
        <time>2019-05-17T20:33:16Z</time>
      </trkpt>
      <trkpt lat="39.71503" lon="-8.54549">
        <ele>145.3</ele>
        <time>2019-05-17T20:33:58Z</time>
      </trkpt>
      <trkpt lat="39.71504" lon="-8.54551">
        <ele>144.82</ele>
        <time>2019-05-17T20:34:42Z</time>
      </trkpt>
      <trkpt lat="39.71506" lon="-8.54551">
        <ele>144.34</ele>
        <time>2019-05-17T20:35:26Z</time>
      </trkpt>
      <trkpt lat="39.71504" lon="-8.5455">
        <ele>145.3</ele>
        <time>2019-05-17T20:36:08Z</time>
      </trkpt>
      <trkpt lat="39.71506" lon="-8.54545">
        <ele>144.82</ele>
        <time>2019-05-17T20:36:51Z</time>
      </trkpt>
      <trkpt lat="39.71503" lon="-8.54544">
        <ele>144.34</ele>
        <time>2019-05-17T20:37:30Z</time>
      </trkpt>
      <trkpt lat="39.71502" lon="-8.54547">
        <ele>144.82</ele>
        <time>2019-05-17T20:38:04Z</time>
      </trkpt>
      <trkpt lat="39.71499" lon="-8.54548">
        <ele>144.82</ele>
        <time>2019-05-17T20:38:31Z</time>
      </trkpt>
      <trkpt lat="39.71503" lon="-8.54548">
        <ele>144.82</ele>
        <time>2019-05-17T20:39:07Z</time>
      </trkpt>
      <trkpt lat="39.71506" lon="-8.54551">
        <ele>144.82</ele>
        <time>2019-05-17T20:39:54Z</time>
      </trkpt>
      <trkpt lat="39.71508" lon="-8.54554">
        <ele>144.34</ele>
        <time>2019-05-17T20:40:40Z</time>
      </trkpt>
      <trkpt lat="39.71506" lon="-8.54552">
        <ele>144.34</ele>
        <time>2019-05-17T20:41:28Z</time>
      </trkpt>
      <trkpt lat="39.71507" lon="-8.54548">
        <ele>143.85</ele>
        <time>2019-05-17T20:42:17Z</time>
      </trkpt>
      <trkpt lat="39.71504" lon="-8.54545">
        <ele>144.34</ele>
        <time>2019-05-17T20:43:03Z</time>
      </trkpt>
      <trkpt lat="39.71502" lon="-8.5454">
        <ele>143.85</ele>
        <time>2019-05-17T20:43:49Z</time>
      </trkpt>
      <trkpt lat="39.71505" lon="-8.54542">
        <ele>144.34</ele>
        <time>2019-05-17T20:44:33Z</time>
      </trkpt>
      <trkpt lat="39.71506" lon="-8.54541">
        <ele>143.85</ele>
        <time>2019-05-17T20:45:13Z</time>
      </trkpt>
      <trkpt lat="39.71506" lon="-8.54541">
        <ele>144.82</ele>
        <time>2019-05-17T20:45:54Z</time>
      </trkpt>
      <trkpt lat="39.71503" lon="-8.54539">
        <ele>145.78</ele>
        <time>2019-05-17T20:46:29Z</time>
      </trkpt>
      <trkpt lat="39.71502" lon="-8.5454">
        <ele>145.3</ele>
        <time>2019-05-17T20:47:04Z</time>
      </trkpt>
      <trkpt lat="39.71503" lon="-8.54542">
        <ele>145.78</ele>
        <time>2019-05-17T20:47:40Z</time>
      </trkpt>
      <trkpt lat="39.71504" lon="-8.54543">
        <ele>144.82</ele>
        <time>2019-05-17T20:48:06Z</time>
      </trkpt>
      <trkpt lat="39.71504" lon="-8.54545">
        <ele>144.82</ele>
        <time>2019-05-17T20:48:43Z</time>
      </trkpt>
      <trkpt lat="39.715" lon="-8.5454">
        <ele>145.3</ele>
        <time>2019-05-17T20:49:20Z</time>
      </trkpt>
      <trkpt lat="39.71505" lon="-8.54544">
        <ele>145.3</ele>
        <time>2019-05-17T20:50:02Z</time>
      </trkpt>
      <trkpt lat="39.71507" lon="-8.54548">
        <ele>145.3</ele>
        <time>2019-05-17T20:50:48Z</time>
      </trkpt>
      <trkpt lat="39.71505" lon="-8.54548">
        <ele>145.3</ele>
        <time>2019-05-17T20:51:30Z</time>
      </trkpt>
      <trkpt lat="39.71503" lon="-8.54547">
        <ele>144.82</ele>
        <time>2019-05-17T20:52:01Z</time>
      </trkpt>
      <trkpt lat="39.71505" lon="-8.54547">
        <ele>144.82</ele>
        <time>2019-05-17T20:52:33Z</time>
      </trkpt>
      <trkpt lat="39.71503" lon="-8.54547">
        <ele>144.82</ele>
        <time>2019-05-17T20:53:01Z</time>
      </trkpt>
      <trkpt lat="39.71503" lon="-8.54542">
        <ele>144.82</ele>
        <time>2019-05-17T20:53:33Z</time>
      </trkpt>
      <trkpt lat="39.71506" lon="-8.54541">
        <ele>144.82</ele>
        <time>2019-05-17T20:54:08Z</time>
      </trkpt>
      <trkpt lat="39.71502" lon="-8.5454">
        <ele>145.78</ele>
        <time>2019-05-17T20:54:41Z</time>
      </trkpt>
      <trkpt lat="39.71503" lon="-8.5454">
        <ele>145.3</ele>
        <time>2019-05-17T20:55:20Z</time>
      </trkpt>
      <trkpt lat="39.71503" lon="-8.54538">
        <ele>145.78</ele>
        <time>2019-05-17T20:55:55Z</time>
      </trkpt>
      <trkpt lat="39.71505" lon="-8.54542">
        <ele>145.78</ele>
        <time>2019-05-17T20:56:24Z</time>
      </trkpt>
      <trkpt lat="39.71505" lon="-8.54541">
        <ele>146.26</ele>
        <time>2019-05-17T20:56:50Z</time>
      </trkpt>
      <trkpt lat="39.71507" lon="-8.54543">
        <ele>146.26</ele>
        <time>2019-05-17T20:57:21Z</time>
      </trkpt>
      <trkpt lat="39.71506" lon="-8.54543">
        <ele>147.22</ele>
        <time>2019-05-17T20:57:51Z</time>
      </trkpt>
      <trkpt lat="39.71504" lon="-8.5454">
        <ele>147.22</ele>
        <time>2019-05-17T20:58:31Z</time>
      </trkpt>
      <trkpt lat="39.71506" lon="-8.5454">
        <ele>147.22</ele>
        <time>2019-05-17T20:59:13Z</time>
      </trkpt>
      <trkpt lat="39.71509" lon="-8.54544">
        <ele>147.22</ele>
        <time>2019-05-17T20:59:47Z</time>
      </trkpt>
      <trkpt lat="39.71511" lon="-8.54543">
        <ele>147.7</ele>
        <time>2019-05-17T21:00:25Z</time>
      </trkpt>
      <trkpt lat="39.71505" lon="-8.54545">
        <ele>147.22</ele>
        <time>2019-05-17T21:01:04Z</time>
      </trkpt>
      <trkpt lat="39.71508" lon="-8.54541">
        <ele>146.74</ele>
        <time>2019-05-17T21:01:40Z</time>
      </trkpt>
      <trkpt lat="39.71503" lon="-8.54543">
        <ele>146.74</ele>
        <time>2019-05-17T21:02:19Z</time>
      </trkpt>
      <trkpt lat="39.71502" lon="-8.54542">
        <ele>146.26</ele>
        <time>2019-05-17T21:02:53Z</time>
      </trkpt>
      <trkpt lat="39.71504" lon="-8.54543">
        <ele>146.26</ele>
        <time>2019-05-17T21:03:28Z</time>
      </trkpt>
      <trkpt lat="39.71506" lon="-8.54543">
        <ele>146.26</ele>
        <time>2019-05-17T21:04:11Z</time>
      </trkpt>
      <trkpt lat="39.71504" lon="-8.54539">
        <ele>146.26</ele>
        <time>2019-05-17T21:05:03Z</time>
      </trkpt>
      <trkpt lat="39.71505" lon="-8.54541">
        <ele>146.26</ele>
        <time>2019-05-17T21:05:47Z</time>
      </trkpt>
      <trkpt lat="39.71502" lon="-8.54543">
        <ele>146.26</ele>
        <time>2019-05-17T21:06:27Z</time>
      </trkpt>
      <trkpt lat="39.71504" lon="-8.54538">
        <ele>146.26</ele>
        <time>2019-05-17T21:06:56Z</time>
      </trkpt>
      <trkpt lat="39.71507" lon="-8.54543">
        <ele>146.74</ele>
        <time>2019-05-17T21:07:26Z</time>
      </trkpt>
      <trkpt lat="39.71499" lon="-8.54546">
        <ele>146.74</ele>
        <time>2019-05-17T21:07:55Z</time>
      </trkpt>
      <trkpt lat="39.71499" lon="-8.54544">
        <ele>146.74</ele>
        <time>2019-05-17T21:08:21Z</time>
      </trkpt>
      <trkpt lat="39.71506" lon="-8.5454">
        <ele>146.26</ele>
        <time>2019-05-17T21:08:50Z</time>
      </trkpt>
      <trkpt lat="39.71508" lon="-8.54541">
        <ele>146.26</ele>
        <time>2019-05-17T21:09:22Z</time>
      </trkpt>
      <trkpt lat="39.71508" lon="-8.54538">
        <ele>146.74</ele>
        <time>2019-05-17T21:09:55Z</time>
      </trkpt>
      <trkpt lat="39.71508" lon="-8.54541">
        <ele>146.74</ele>
        <time>2019-05-17T21:10:34Z</time>
      </trkpt>
      <trkpt lat="39.71502" lon="-8.54547">
        <ele>146.74</ele>
        <time>2019-05-17T21:11:05Z</time>
      </trkpt>
      <trkpt lat="39.71503" lon="-8.54543">
        <ele>147.22</ele>
        <time>2019-05-17T21:11:47Z</time>
      </trkpt>
      <trkpt lat="39.71502" lon="-8.54538">
        <ele>147.22</ele>
        <time>2019-05-17T21:12:26Z</time>
      </trkpt>
      <trkpt lat="39.71506" lon="-8.5454">
        <ele>147.7</ele>
        <time>2019-05-17T21:13:00Z</time>
      </trkpt>
      <trkpt lat="39.71504" lon="-8.54539">
        <ele>147.7</ele>
        <time>2019-05-17T21:13:22Z</time>
      </trkpt>
      <trkpt lat="39.71503" lon="-8.54539">
        <ele>148.18</ele>
        <time>2019-05-17T21:13:57Z</time>
      </trkpt>
      <trkpt lat="39.71505" lon="-8.54537">
        <ele>148.18</ele>
        <time>2019-05-17T21:14:38Z</time>
      </trkpt>
      <trkpt lat="39.71509" lon="-8.54536">
        <ele>148.66</ele>
        <time>2019-05-17T21:15:18Z</time>
      </trkpt>
      <trkpt lat="39.71507" lon="-8.54535">
        <ele>148.18</ele>
        <time>2019-05-17T21:15:49Z</time>
      </trkpt>
      <trkpt lat="39.71507" lon="-8.54537">
        <ele>147.7</ele>
        <time>2019-05-17T21:16:17Z</time>
      </trkpt>
      <trkpt lat="39.71502" lon="-8.54538">
        <ele>148.18</ele>
        <time>2019-05-17T21:16:51Z</time>
      </trkpt>
      <trkpt lat="39.715" lon="-8.54537">
        <ele>147.7</ele>
        <time>2019-05-17T21:17:28Z</time>
      </trkpt>
      <trkpt lat="39.715" lon="-8.54541">
        <ele>146.74</ele>
        <time>2019-05-17T21:18:06Z</time>
      </trkpt>
      <trkpt lat="39.71501" lon="-8.54539">
        <ele>146.74</ele>
        <time>2019-05-17T21:18:49Z</time>
      </trkpt>
      <trkpt lat="39.71502" lon="-8.5454">
        <ele>146.26</ele>
        <time>2019-05-17T21:19:34Z</time>
      </trkpt>
      <trkpt lat="39.71502" lon="-8.54541">
        <ele>146.26</ele>
        <time>2019-05-17T21:20:16Z</time>
      </trkpt>
      <trkpt lat="39.71499" lon="-8.54543">
        <ele>146.26</ele>
        <time>2019-05-17T21:20:46Z</time>
      </trkpt>
      <trkpt lat="39.71497" lon="-8.54547">
        <ele>146.26</ele>
        <time>2019-05-17T21:21:16Z</time>
      </trkpt>
      <trkpt lat="39.71501" lon="-8.54548">
        <ele>145.78</ele>
        <time>2019-05-17T21:21:57Z</time>
      </trkpt>
      <trkpt lat="39.71503" lon="-8.54547">
        <ele>145.78</ele>
        <time>2019-05-17T21:22:28Z</time>
      </trkpt>
      <trkpt lat="39.71508" lon="-8.54546">
        <ele>145.78</ele>
        <time>2019-05-17T21:23:07Z</time>
      </trkpt>
      <trkpt lat="39.7151" lon="-8.54544">
        <ele>145.3</ele>
        <time>2019-05-17T21:23:44Z</time>
      </trkpt>
      <trkpt lat="39.71509" lon="-8.54543">
        <ele>145.3</ele>
        <time>2019-05-17T21:24:21Z</time>
      </trkpt>
      <trkpt lat="39.71509" lon="-8.54544">
        <ele>145.78</ele>
        <time>2019-05-17T21:24:55Z</time>
      </trkpt>
      <trkpt lat="39.71506" lon="-8.54544">
        <ele>145.78</ele>
        <time>2019-05-17T21:25:35Z</time>
      </trkpt>
      <trkpt lat="39.71505" lon="-8.54548">
        <ele>145.78</ele>
        <time>2019-05-17T21:26:09Z</time>
      </trkpt>
      <trkpt lat="39.71502" lon="-8.54547">
        <ele>145.78</ele>
        <time>2019-05-17T21:26:44Z</time>
      </trkpt>
      <trkpt lat="39.71501" lon="-8.54542">
        <ele>145.78</ele>
        <time>2019-05-17T21:27:24Z</time>
      </trkpt>
      <trkpt lat="39.715" lon="-8.54541">
        <ele>145.78</ele>
        <time>2019-05-17T21:27:59Z</time>
      </trkpt>
      <trkpt lat="39.71501" lon="-8.54541">
        <ele>145.78</ele>
        <time>2019-05-17T21:28:44Z</time>
      </trkpt>
      <trkpt lat="39.71498" lon="-8.5454">
        <ele>145.78</ele>
        <time>2019-05-17T21:29:27Z</time>
      </trkpt>
      <trkpt lat="39.71498" lon="-8.54543">
        <ele>146.26</ele>
        <time>2019-05-17T21:30:05Z</time>
      </trkpt>
      <trkpt lat="39.71499" lon="-8.54545">
        <ele>146.26</ele>
        <time>2019-05-17T21:30:43Z</time>
      </trkpt>
      <trkpt lat="39.71503" lon="-8.54545">
        <ele>146.26</ele>
        <time>2019-05-17T21:31:19Z</time>
      </trkpt>
      <trkpt lat="39.71501" lon="-8.54543">
        <ele>146.26</ele>
        <time>2019-05-17T21:31:54Z</time>
      </trkpt>
      <trkpt lat="39.71503" lon="-8.54543">
        <ele>146.74</ele>
        <time>2019-05-17T21:32:30Z</time>
      </trkpt>
      <trkpt lat="39.71502" lon="-8.54542">
        <ele>146.26</ele>
        <time>2019-05-17T21:33:12Z</time>
      </trkpt>
      <trkpt lat="39.71501" lon="-8.54547">
        <ele>145.78</ele>
        <time>2019-05-17T21:33:53Z</time>
      </trkpt>
      <trkpt lat="39.71503" lon="-8.54544">
        <ele>145.78</ele>
        <time>2019-05-17T21:34:40Z</time>
      </trkpt>
      <trkpt lat="39.71501" lon="-8.54543">
        <ele>145.78</ele>
        <time>2019-05-17T21:35:26Z</time>
      </trkpt>
      <trkpt lat="39.715" lon="-8.54538">
        <ele>146.26</ele>
        <time>2019-05-17T21:36:12Z</time>
      </trkpt>
      <trkpt lat="39.71501" lon="-8.54539">
        <ele>145.78</ele>
        <time>2019-05-17T21:36:55Z</time>
      </trkpt>
      <trkpt lat="39.71508" lon="-8.54535">
        <ele>145.78</ele>
        <time>2019-05-17T21:37:28Z</time>
      </trkpt>
      <trkpt lat="39.71502" lon="-8.5454">
        <ele>145.78</ele>
        <time>2019-05-17T21:38:03Z</time>
      </trkpt>
      <trkpt lat="39.71503" lon="-8.54537">
        <ele>145.78</ele>
        <time>2019-05-17T21:38:39Z</time>
      </trkpt>
      <trkpt lat="39.71503" lon="-8.54538">
        <ele>145.3</ele>
        <time>2019-05-17T21:39:18Z</time>
      </trkpt>
      <trkpt lat="39.71502" lon="-8.54539">
        <ele>145.78</ele>
        <time>2019-05-17T21:39:53Z</time>
      </trkpt>
      <trkpt lat="39.71495" lon="-8.54555">
        <ele>145.3</ele>
        <time>2019-05-17T21:40:26Z</time>
      </trkpt>
      <trkpt lat="39.71504" lon="-8.54539">
        <ele>145.3</ele>
        <time>2019-05-17T21:41:05Z</time>
      </trkpt>
      <trkpt lat="39.715" lon="-8.54536">
        <ele>145.3</ele>
        <time>2019-05-17T21:41:39Z</time>
      </trkpt>
      <trkpt lat="39.71495" lon="-8.54537">
        <ele>145.3</ele>
        <time>2019-05-17T21:42:17Z</time>
      </trkpt>
      <trkpt lat="39.71499" lon="-8.54536">
        <ele>145.3</ele>
        <time>2019-05-17T21:42:53Z</time>
      </trkpt>
      <trkpt lat="39.715" lon="-8.54532">
        <ele>145.3</ele>
        <time>2019-05-17T21:43:31Z</time>
      </trkpt>
      <trkpt lat="39.715" lon="-8.54539">
        <ele>144.82</ele>
        <time>2019-05-17T21:44:13Z</time>
      </trkpt>
      <trkpt lat="39.71502" lon="-8.54541">
        <ele>145.78</ele>
        <time>2019-05-17T21:44:56Z</time>
      </trkpt>
      <trkpt lat="39.71501" lon="-8.54545">
        <ele>145.78</ele>
        <time>2019-05-17T21:45:39Z</time>
      </trkpt>
      <trkpt lat="39.71501" lon="-8.54544">
        <ele>145.78</ele>
        <time>2019-05-17T21:46:21Z</time>
      </trkpt>
      <trkpt lat="39.71501" lon="-8.5454">
        <ele>145.78</ele>
        <time>2019-05-17T21:47:02Z</time>
      </trkpt>
      <trkpt lat="39.71501" lon="-8.54537">
        <ele>145.78</ele>
        <time>2019-05-17T21:47:44Z</time>
      </trkpt>
      <trkpt lat="39.715" lon="-8.54541">
        <ele>145.78</ele>
        <time>2019-05-17T21:48:22Z</time>
      </trkpt>
      <trkpt lat="39.71501" lon="-8.54541">
        <ele>146.26</ele>
        <time>2019-05-17T21:49:00Z</time>
      </trkpt>
      <trkpt lat="39.71501" lon="-8.54541">
        <ele>146.26</ele>
        <time>2019-05-17T21:49:41Z</time>
      </trkpt>
      <trkpt lat="39.71504" lon="-8.54542">
        <ele>146.26</ele>
        <time>2019-05-17T21:50:24Z</time>
      </trkpt>
      <trkpt lat="39.71505" lon="-8.5454">
        <ele>146.26</ele>
        <time>2019-05-17T21:51:03Z</time>
      </trkpt>
      <trkpt lat="39.71506" lon="-8.5454">
        <ele>146.26</ele>
        <time>2019-05-17T21:51:45Z</time>
      </trkpt>
      <trkpt lat="39.71505" lon="-8.5454">
        <ele>146.26</ele>
        <time>2019-05-17T21:52:20Z</time>
      </trkpt>
      <trkpt lat="39.71504" lon="-8.54535">
        <ele>146.26</ele>
        <time>2019-05-17T21:52:54Z</time>
      </trkpt>
      <trkpt lat="39.71501" lon="-8.54537">
        <ele>146.74</ele>
        <time>2019-05-17T21:53:26Z</time>
      </trkpt>
      <trkpt lat="39.71499" lon="-8.54546">
        <ele>146.26</ele>
        <time>2019-05-17T21:53:56Z</time>
      </trkpt>
      <trkpt lat="39.71503" lon="-8.54546">
        <ele>146.26</ele>
        <time>2019-05-17T21:54:28Z</time>
      </trkpt>
      <trkpt lat="39.71502" lon="-8.54542">
        <ele>146.26</ele>
        <time>2019-05-17T21:55:18Z</time>
      </trkpt>
      <trkpt lat="39.715" lon="-8.54545">
        <ele>146.26</ele>
        <time>2019-05-17T21:55:59Z</time>
      </trkpt>
      <trkpt lat="39.71501" lon="-8.54546">
        <ele>146.74</ele>
        <time>2019-05-17T21:56:44Z</time>
      </trkpt>
      <trkpt lat="39.71502" lon="-8.54545">
        <ele>146.26</ele>
        <time>2019-05-17T21:57:27Z</time>
      </trkpt>
      <trkpt lat="39.71503" lon="-8.54544">
        <ele>146.26</ele>
        <time>2019-05-17T21:58:08Z</time>
      </trkpt>
      <trkpt lat="39.71499" lon="-8.54544">
        <ele>146.74</ele>
        <time>2019-05-17T21:58:42Z</time>
      </trkpt>
      <trkpt lat="39.71492" lon="-8.54548">
        <ele>146.74</ele>
        <time>2019-05-17T21:59:09Z</time>
      </trkpt>
      <trkpt lat="39.71495" lon="-8.54545">
        <ele>146.74</ele>
        <time>2019-05-17T21:59:44Z</time>
      </trkpt>
      <trkpt lat="39.71501" lon="-8.5454">
        <ele>146.26</ele>
        <time>2019-05-17T22:00:13Z</time>
      </trkpt>
      <trkpt lat="39.715" lon="-8.54537">
        <ele>146.26</ele>
        <time>2019-05-17T22:00:47Z</time>
      </trkpt>
      <trkpt lat="39.71495" lon="-8.54536">
        <ele>146.26</ele>
        <time>2019-05-17T22:01:16Z</time>
      </trkpt>
      <trkpt lat="39.71498" lon="-8.54535">
        <ele>146.74</ele>
        <time>2019-05-17T22:01:46Z</time>
      </trkpt>
      <trkpt lat="39.71493" lon="-8.54538">
        <ele>146.26</ele>
        <time>2019-05-17T22:02:16Z</time>
      </trkpt>
      <trkpt lat="39.71498" lon="-8.54539">
        <ele>145.3</ele>
        <time>2019-05-17T22:02:45Z</time>
      </trkpt>
      <trkpt lat="39.71503" lon="-8.54539">
        <ele>144.82</ele>
        <time>2019-05-17T22:03:13Z</time>
      </trkpt>
      <trkpt lat="39.71502" lon="-8.54545">
        <ele>144.34</ele>
        <time>2019-05-17T22:03:50Z</time>
      </trkpt>
      <trkpt lat="39.71499" lon="-8.5454">
        <ele>144.34</ele>
        <time>2019-05-17T22:04:24Z</time>
      </trkpt>
      <trkpt lat="39.715" lon="-8.54543">
        <ele>143.37</ele>
        <time>2019-05-17T22:05:03Z</time>
      </trkpt>
      <trkpt lat="39.71498" lon="-8.5455">
        <ele>143.37</ele>
        <time>2019-05-17T22:05:48Z</time>
      </trkpt>
      <trkpt lat="39.71502" lon="-8.54543">
        <ele>142.89</ele>
        <time>2019-05-17T22:06:25Z</time>
      </trkpt>
      <trkpt lat="39.71503" lon="-8.54548">
        <ele>142.89</ele>
        <time>2019-05-17T22:07:05Z</time>
      </trkpt>
      <trkpt lat="39.71503" lon="-8.5455">
        <ele>142.41</ele>
        <time>2019-05-17T22:07:39Z</time>
      </trkpt>
      <trkpt lat="39.71501" lon="-8.5455">
        <ele>142.41</ele>
        <time>2019-05-17T22:08:12Z</time>
      </trkpt>
      <trkpt lat="39.715" lon="-8.5455">
        <ele>142.89</ele>
        <time>2019-05-17T22:08:39Z</time>
      </trkpt>
      <trkpt lat="39.71502" lon="-8.5455">
        <ele>143.37</ele>
        <time>2019-05-17T22:09:10Z</time>
      </trkpt>
      <trkpt lat="39.71502" lon="-8.54545">
        <ele>143.37</ele>
        <time>2019-05-17T22:09:48Z</time>
      </trkpt>
      <trkpt lat="39.715" lon="-8.54548">
        <ele>143.37</ele>
        <time>2019-05-17T22:10:29Z</time>
      </trkpt>
      <trkpt lat="39.71504" lon="-8.54547">
        <ele>143.85</ele>
        <time>2019-05-17T22:11:13Z</time>
      </trkpt>
      <trkpt lat="39.71503" lon="-8.54545">
        <ele>143.85</ele>
        <time>2019-05-17T22:12:03Z</time>
      </trkpt>
      <trkpt lat="39.71501" lon="-8.54543">
        <ele>143.85</ele>
        <time>2019-05-17T22:12:54Z</time>
      </trkpt>
      <trkpt lat="39.71499" lon="-8.54542">
        <ele>144.82</ele>
        <time>2019-05-17T22:13:40Z</time>
      </trkpt>
      <trkpt lat="39.71503" lon="-8.54541">
        <ele>144.34</ele>
        <time>2019-05-17T22:14:18Z</time>
      </trkpt>
      <trkpt lat="39.71499" lon="-8.54543">
        <ele>144.82</ele>
        <time>2019-05-17T22:14:58Z</time>
      </trkpt>
      <trkpt lat="39.71495" lon="-8.54542">
        <ele>144.82</ele>
        <time>2019-05-17T22:15:28Z</time>
      </trkpt>
      <trkpt lat="39.71493" lon="-8.54538">
        <ele>144.82</ele>
        <time>2019-05-17T22:16:09Z</time>
      </trkpt>
      <trkpt lat="39.71496" lon="-8.54538">
        <ele>145.78</ele>
        <time>2019-05-17T22:16:55Z</time>
      </trkpt>
      <trkpt lat="39.71498" lon="-8.54545">
        <ele>145.3</ele>
        <time>2019-05-17T22:17:33Z</time>
      </trkpt>
      <trkpt lat="39.71498" lon="-8.5454">
        <ele>145.3</ele>
        <time>2019-05-17T22:18:09Z</time>
      </trkpt>
      <trkpt lat="39.71501" lon="-8.54538">
        <ele>145.3</ele>
        <time>2019-05-17T22:18:50Z</time>
      </trkpt>
      <trkpt lat="39.71502" lon="-8.54547">
        <ele>145.3</ele>
        <time>2019-05-17T22:19:27Z</time>
      </trkpt>
      <trkpt lat="39.71506" lon="-8.54539">
        <ele>145.3</ele>
        <time>2019-05-17T22:20:08Z</time>
      </trkpt>
      <trkpt lat="39.71502" lon="-8.54537">
        <ele>144.82</ele>
        <time>2019-05-17T22:20:56Z</time>
      </trkpt>
      <trkpt lat="39.715" lon="-8.54539">
        <ele>145.3</ele>
        <time>2019-05-17T22:21:34Z</time>
      </trkpt>
      <trkpt lat="39.71503" lon="-8.54539">
        <ele>144.82</ele>
        <time>2019-05-17T22:22:17Z</time>
      </trkpt>
      <trkpt lat="39.71504" lon="-8.5454">
        <ele>145.78</ele>
        <time>2019-05-17T22:23:08Z</time>
      </trkpt>
      <trkpt lat="39.71503" lon="-8.54543">
        <ele>145.3</ele>
        <time>2019-05-17T22:23:49Z</time>
      </trkpt>
      <trkpt lat="39.71504" lon="-8.54545">
        <ele>145.3</ele>
        <time>2019-05-17T22:24:24Z</time>
      </trkpt>
      <trkpt lat="39.71503" lon="-8.54538">
        <ele>145.3</ele>
        <time>2019-05-17T22:25:06Z</time>
      </trkpt>
      <trkpt lat="39.71505" lon="-8.54537">
        <ele>145.78</ele>
        <time>2019-05-17T22:25:51Z</time>
      </trkpt>
      <trkpt lat="39.71509" lon="-8.54538">
        <ele>145.3</ele>
        <time>2019-05-17T22:26:31Z</time>
      </trkpt>
      <trkpt lat="39.71508" lon="-8.54535">
        <ele>145.78</ele>
        <time>2019-05-17T22:27:17Z</time>
      </trkpt>
      <trkpt lat="39.71505" lon="-8.54531">
        <ele>145.78</ele>
        <time>2019-05-17T22:27:54Z</time>
      </trkpt>
      <trkpt lat="39.71505" lon="-8.54533">
        <ele>146.74</ele>
        <time>2019-05-17T22:28:27Z</time>
      </trkpt>
      <trkpt lat="39.71509" lon="-8.54537">
        <ele>146.74</ele>
        <time>2019-05-17T22:29:09Z</time>
      </trkpt>
      <trkpt lat="39.7151" lon="-8.54538">
        <ele>146.26</ele>
        <time>2019-05-17T22:29:40Z</time>
      </trkpt>
      <trkpt lat="39.71507" lon="-8.54538">
        <ele>146.26</ele>
        <time>2019-05-17T22:30:12Z</time>
      </trkpt>
      <trkpt lat="39.71512" lon="-8.54541">
        <ele>146.74</ele>
        <time>2019-05-17T22:30:51Z</time>
      </trkpt>
      <trkpt lat="39.71512" lon="-8.54536">
        <ele>146.74</ele>
        <time>2019-05-17T22:31:33Z</time>
      </trkpt>
      <trkpt lat="39.71512" lon="-8.54538">
        <ele>146.74</ele>
        <time>2019-05-17T22:32:12Z</time>
      </trkpt>
      <trkpt lat="39.71509" lon="-8.54537">
        <ele>146.74</ele>
        <time>2019-05-17T22:32:50Z</time>
      </trkpt>
      <trkpt lat="39.71507" lon="-8.54537">
        <ele>146.74</ele>
        <time>2019-05-17T22:33:43Z</time>
      </trkpt>
      <trkpt lat="39.715" lon="-8.54538">
        <ele>146.74</ele>
        <time>2019-05-17T22:34:29Z</time>
      </trkpt>
      <trkpt lat="39.71499" lon="-8.54539">
        <ele>147.22</ele>
        <time>2019-05-17T22:35:06Z</time>
      </trkpt>
      <trkpt lat="39.71506" lon="-8.5454">
        <ele>146.74</ele>
        <time>2019-05-17T22:35:42Z</time>
      </trkpt>
      <trkpt lat="39.71504" lon="-8.54536">
        <ele>146.74</ele>
        <time>2019-05-17T22:36:24Z</time>
      </trkpt>
      <trkpt lat="39.71498" lon="-8.54532">
        <ele>147.22</ele>
        <time>2019-05-17T22:37:04Z</time>
      </trkpt>
      <trkpt lat="39.715" lon="-8.54536">
        <ele>147.7</ele>
        <time>2019-05-17T22:37:40Z</time>
      </trkpt>
      <trkpt lat="39.71499" lon="-8.54538">
        <ele>147.22</ele>
        <time>2019-05-17T22:38:15Z</time>
      </trkpt>
      <trkpt lat="39.71492" lon="-8.54539">
        <ele>147.22</ele>
        <time>2019-05-17T22:38:51Z</time>
      </trkpt>
      <trkpt lat="39.71492" lon="-8.54538">
        <ele>147.22</ele>
        <time>2019-05-17T22:39:27Z</time>
      </trkpt>
      <trkpt lat="39.71499" lon="-8.54542">
        <ele>146.74</ele>
        <time>2019-05-17T22:39:56Z</time>
      </trkpt>
      <trkpt lat="39.71506" lon="-8.54544">
        <ele>146.74</ele>
        <time>2019-05-17T22:40:22Z</time>
      </trkpt>
      <trkpt lat="39.71513" lon="-8.54546">
        <ele>147.22</ele>
        <time>2019-05-17T22:40:49Z</time>
      </trkpt>
      <trkpt lat="39.71504" lon="-8.54539">
        <ele>147.22</ele>
        <time>2019-05-17T22:41:20Z</time>
      </trkpt>
      <trkpt lat="39.715" lon="-8.54539">
        <ele>147.7</ele>
        <time>2019-05-17T22:41:53Z</time>
      </trkpt>
      <trkpt lat="39.71501" lon="-8.54542">
        <ele>147.7</ele>
        <time>2019-05-17T22:42:31Z</time>
      </trkpt>
      <trkpt lat="39.71499" lon="-8.54543">
        <ele>148.18</ele>
        <time>2019-05-17T22:43:10Z</time>
      </trkpt>
      <trkpt lat="39.71497" lon="-8.54533">
        <ele>149.14</ele>
        <time>2019-05-17T22:43:53Z</time>
      </trkpt>
      <trkpt lat="39.71495" lon="-8.54533">
        <ele>149.14</ele>
        <time>2019-05-17T22:44:29Z</time>
      </trkpt>
      <trkpt lat="39.71505" lon="-8.54532">
        <ele>148.66</ele>
        <time>2019-05-17T22:45:01Z</time>
      </trkpt>
      <trkpt lat="39.71506" lon="-8.54535">
        <ele>149.14</ele>
        <time>2019-05-17T22:45:41Z</time>
      </trkpt>
      <trkpt lat="39.71505" lon="-8.54542">
        <ele>148.18</ele>
        <time>2019-05-17T22:46:22Z</time>
      </trkpt>
      <trkpt lat="39.71501" lon="-8.5454">
        <ele>148.18</ele>
        <time>2019-05-17T22:47:07Z</time>
      </trkpt>
      <trkpt lat="39.71507" lon="-8.54542">
        <ele>149.14</ele>
        <time>2019-05-17T22:47:56Z</time>
      </trkpt>
      <trkpt lat="39.71504" lon="-8.54546">
        <ele>148.66</ele>
        <time>2019-05-17T22:48:36Z</time>
      </trkpt>
      <trkpt lat="39.71498" lon="-8.54547">
        <ele>148.18</ele>
        <time>2019-05-17T22:49:13Z</time>
      </trkpt>
      <trkpt lat="39.71497" lon="-8.54547">
        <ele>148.18</ele>
        <time>2019-05-17T22:49:54Z</time>
      </trkpt>
      <trkpt lat="39.71499" lon="-8.54548">
        <ele>147.7</ele>
        <time>2019-05-17T22:50:34Z</time>
      </trkpt>
      <trkpt lat="39.71503" lon="-8.54544">
        <ele>147.22</ele>
        <time>2019-05-17T22:51:09Z</time>
      </trkpt>
      <trkpt lat="39.71506" lon="-8.54544">
        <ele>146.74</ele>
        <time>2019-05-17T22:51:39Z</time>
      </trkpt>
      <trkpt lat="39.71505" lon="-8.54543">
        <ele>146.74</ele>
        <time>2019-05-17T22:52:24Z</time>
      </trkpt>
      <trkpt lat="39.71503" lon="-8.54539">
        <ele>146.74</ele>
        <time>2019-05-17T22:53:18Z</time>
      </trkpt>
      <trkpt lat="39.71501" lon="-8.5454">
        <ele>147.22</ele>
        <time>2019-05-17T22:54:03Z</time>
      </trkpt>
      <trkpt lat="39.71502" lon="-8.54542">
        <ele>146.74</ele>
        <time>2019-05-17T22:54:47Z</time>
      </trkpt>
      <trkpt lat="39.71506" lon="-8.54545">
        <ele>147.7</ele>
        <time>2019-05-17T22:55:18Z</time>
      </trkpt>
      <trkpt lat="39.71499" lon="-8.54535">
        <ele>147.22</ele>
        <time>2019-05-17T22:55:52Z</time>
      </trkpt>
      <trkpt lat="39.71495" lon="-8.54536">
        <ele>147.22</ele>
        <time>2019-05-17T22:56:24Z</time>
      </trkpt>
      <trkpt lat="39.71494" lon="-8.54538">
        <ele>147.22</ele>
        <time>2019-05-17T22:56:58Z</time>
      </trkpt>
      <trkpt lat="39.71495" lon="-8.54545">
        <ele>147.22</ele>
        <time>2019-05-17T22:57:39Z</time>
      </trkpt>
      <trkpt lat="39.71499" lon="-8.54547">
        <ele>147.22</ele>
        <time>2019-05-17T22:58:19Z</time>
      </trkpt>
      <trkpt lat="39.71503" lon="-8.54547">
        <ele>146.74</ele>
        <time>2019-05-17T22:58:50Z</time>
      </trkpt>
      <trkpt lat="39.71499" lon="-8.54545">
        <ele>147.22</ele>
        <time>2019-05-17T22:59:14Z</time>
      </trkpt>
      <trkpt lat="39.71501" lon="-8.54548">
        <ele>147.22</ele>
        <time>2019-05-17T22:59:48Z</time>
      </trkpt>
      <trkpt lat="39.71498" lon="-8.54543">
        <ele>146.74</ele>
        <time>2019-05-17T23:00:30Z</time>
      </trkpt>
      <trkpt lat="39.71495" lon="-8.54545">
        <ele>146.74</ele>
        <time>2019-05-17T23:01:14Z</time>
      </trkpt>
      <trkpt lat="39.71497" lon="-8.54543">
        <ele>146.26</ele>
        <time>2019-05-17T23:01:51Z</time>
      </trkpt>
      <trkpt lat="39.71499" lon="-8.54537">
        <ele>146.74</ele>
        <time>2019-05-17T23:02:25Z</time>
      </trkpt>
      <trkpt lat="39.71499" lon="-8.54558">
        <ele>146.26</ele>
        <time>2019-05-17T23:02:54Z</time>
      </trkpt>
      <trkpt lat="39.715" lon="-8.54551">
        <ele>146.26</ele>
        <time>2019-05-17T23:03:22Z</time>
      </trkpt>
      <trkpt lat="39.71497" lon="-8.54541">
        <ele>146.74</ele>
        <time>2019-05-17T23:04:00Z</time>
      </trkpt>
      <trkpt lat="39.71497" lon="-8.54533">
        <ele>146.26</ele>
        <time>2019-05-17T23:04:41Z</time>
      </trkpt>
      <trkpt lat="39.71497" lon="-8.54536">
        <ele>146.74</ele>
        <time>2019-05-17T23:05:21Z</time>
      </trkpt>
      <trkpt lat="39.71495" lon="-8.54534">
        <ele>147.22</ele>
        <time>2019-05-17T23:05:58Z</time>
      </trkpt>
      <trkpt lat="39.71493" lon="-8.54529">
        <ele>147.22</ele>
        <time>2019-05-17T23:06:37Z</time>
      </trkpt>
      <trkpt lat="39.71499" lon="-8.54535">
        <ele>148.18</ele>
        <time>2019-05-17T23:07:14Z</time>
      </trkpt>
      <trkpt lat="39.71498" lon="-8.54533">
        <ele>148.66</ele>
        <time>2019-05-17T23:07:52Z</time>
      </trkpt>
      <trkpt lat="39.71492" lon="-8.54538">
        <ele>148.66</ele>
        <time>2019-05-17T23:08:26Z</time>
      </trkpt>
      <trkpt lat="39.71491" lon="-8.54533">
        <ele>149.14</ele>
        <time>2019-05-17T23:09:00Z</time>
      </trkpt>
      <trkpt lat="39.7149" lon="-8.54532">
        <ele>149.62</ele>
        <time>2019-05-17T23:09:44Z</time>
      </trkpt>
      <trkpt lat="39.71494" lon="-8.54536">
        <ele>150.1</ele>
        <time>2019-05-17T23:10:24Z</time>
      </trkpt>
      <trkpt lat="39.71496" lon="-8.54535">
        <ele>150.1</ele>
        <time>2019-05-17T23:11:04Z</time>
      </trkpt>
      <trkpt lat="39.71494" lon="-8.54534">
        <ele>150.58</ele>
        <time>2019-05-17T23:11:44Z</time>
      </trkpt>
      <trkpt lat="39.71495" lon="-8.54535">
        <ele>150.1</ele>
        <time>2019-05-17T23:12:23Z</time>
      </trkpt>
      <trkpt lat="39.71494" lon="-8.54536">
        <ele>151.06</ele>
        <time>2019-05-17T23:13:01Z</time>
      </trkpt>
      <trkpt lat="39.71498" lon="-8.54538">
        <ele>151.54</ele>
        <time>2019-05-17T23:13:36Z</time>
      </trkpt>
      <trkpt lat="39.715" lon="-8.54542">
        <ele>151.54</ele>
        <time>2019-05-17T23:14:20Z</time>
      </trkpt>
      <trkpt lat="39.71503" lon="-8.54542">
        <ele>151.54</ele>
        <time>2019-05-17T23:15:02Z</time>
      </trkpt>
      <trkpt lat="39.71501" lon="-8.54541">
        <ele>151.54</ele>
        <time>2019-05-17T23:15:38Z</time>
      </trkpt>
      <trkpt lat="39.71497" lon="-8.54538">
        <ele>151.06</ele>
        <time>2019-05-17T23:16:12Z</time>
      </trkpt>
      <trkpt lat="39.71497" lon="-8.54539">
        <ele>150.58</ele>
        <time>2019-05-17T23:16:36Z</time>
      </trkpt>
      <trkpt lat="39.71502" lon="-8.54539">
        <ele>151.06</ele>
        <time>2019-05-17T23:17:06Z</time>
      </trkpt>
      <trkpt lat="39.71502" lon="-8.54543">
        <ele>150.58</ele>
        <time>2019-05-17T23:17:48Z</time>
      </trkpt>
      <trkpt lat="39.715" lon="-8.54545">
        <ele>150.58</ele>
        <time>2019-05-17T23:18:26Z</time>
      </trkpt>
      <trkpt lat="39.71499" lon="-8.54543">
        <ele>150.58</ele>
        <time>2019-05-17T23:19:06Z</time>
      </trkpt>
      <trkpt lat="39.71496" lon="-8.5454">
        <ele>150.1</ele>
        <time>2019-05-17T23:19:45Z</time>
      </trkpt>
      <trkpt lat="39.71497" lon="-8.54534">
        <ele>150.1</ele>
        <time>2019-05-17T23:20:24Z</time>
      </trkpt>
      <trkpt lat="39.71499" lon="-8.54535">
        <ele>150.1</ele>
        <time>2019-05-17T23:20:56Z</time>
      </trkpt>
      <trkpt lat="39.71499" lon="-8.54539">
        <ele>150.58</ele>
        <time>2019-05-17T23:21:27Z</time>
      </trkpt>
      <trkpt lat="39.71502" lon="-8.54539">
        <ele>150.1</ele>
        <time>2019-05-17T23:21:57Z</time>
      </trkpt>
      <trkpt lat="39.71502" lon="-8.54539">
        <ele>150.58</ele>
        <time>2019-05-17T23:22:25Z</time>
      </trkpt>
      <trkpt lat="39.71502" lon="-8.54543">
        <ele>150.58</ele>
        <time>2019-05-17T23:22:55Z</time>
      </trkpt>
      <trkpt lat="39.71502" lon="-8.54546">
        <ele>150.1</ele>
        <time>2019-05-17T23:23:23Z</time>
      </trkpt>
      <trkpt lat="39.71504" lon="-8.54547">
        <ele>150.58</ele>
        <time>2019-05-17T23:23:56Z</time>
      </trkpt>
      <trkpt lat="39.71497" lon="-8.54544">
        <ele>150.58</ele>
        <time>2019-05-17T23:24:41Z</time>
      </trkpt>
      <trkpt lat="39.71507" lon="-8.54545">
        <ele>150.58</ele>
        <time>2019-05-17T23:25:36Z</time>
      </trkpt>
      <trkpt lat="39.7151" lon="-8.54549">
        <ele>150.1</ele>
        <time>2019-05-17T23:26:14Z</time>
      </trkpt>
      <trkpt lat="39.71506" lon="-8.54547">
        <ele>150.1</ele>
        <time>2019-05-17T23:26:49Z</time>
      </trkpt>
      <trkpt lat="39.71506" lon="-8.54548">
        <ele>150.1</ele>
        <time>2019-05-17T23:27:17Z</time>
      </trkpt>
      <trkpt lat="39.71506" lon="-8.54542">
        <ele>150.1</ele>
        <time>2019-05-17T23:27:48Z</time>
      </trkpt>
      <trkpt lat="39.71508" lon="-8.54545">
        <ele>150.1</ele>
        <time>2019-05-17T23:28:23Z</time>
      </trkpt>
      <trkpt lat="39.71504" lon="-8.54541">
        <ele>150.58</ele>
        <time>2019-05-17T23:29:04Z</time>
      </trkpt>
      <trkpt lat="39.71505" lon="-8.54539">
        <ele>150.58</ele>
        <time>2019-05-17T23:29:55Z</time>
      </trkpt>
      <trkpt lat="39.71506" lon="-8.54543">
        <ele>151.06</ele>
        <time>2019-05-17T23:30:40Z</time>
      </trkpt>
      <trkpt lat="39.71503" lon="-8.54544">
        <ele>150.58</ele>
        <time>2019-05-17T23:31:23Z</time>
      </trkpt>
      <trkpt lat="39.71498" lon="-8.54546">
        <ele>151.06</ele>
        <time>2019-05-17T23:32:00Z</time>
      </trkpt>
      <trkpt lat="39.71497" lon="-8.54539">
        <ele>151.06</ele>
        <time>2019-05-17T23:32:43Z</time>
      </trkpt>
      <trkpt lat="39.71496" lon="-8.54537">
        <ele>151.06</ele>
        <time>2019-05-17T23:33:15Z</time>
      </trkpt>
      <trkpt lat="39.715" lon="-8.54542">
        <ele>151.06</ele>
        <time>2019-05-17T23:33:48Z</time>
      </trkpt>
      <trkpt lat="39.715" lon="-8.54539">
        <ele>151.54</ele>
        <time>2019-05-17T23:34:19Z</time>
      </trkpt>
      <trkpt lat="39.71496" lon="-8.54536">
        <ele>151.54</ele>
        <time>2019-05-17T23:34:47Z</time>
      </trkpt>
      <trkpt lat="39.71504" lon="-8.54543">
        <ele>151.06</ele>
        <time>2019-05-17T23:35:25Z</time>
      </trkpt>
      <trkpt lat="39.71506" lon="-8.54544">
        <ele>152.03</ele>
        <time>2019-05-17T23:35:53Z</time>
      </trkpt>
      <trkpt lat="39.71507" lon="-8.54541">
        <ele>151.54</ele>
        <time>2019-05-17T23:36:27Z</time>
      </trkpt>
      <trkpt lat="39.715" lon="-8.54539">
        <ele>152.03</ele>
        <time>2019-05-17T23:37:03Z</time>
      </trkpt>
      <trkpt lat="39.71504" lon="-8.54538">
        <ele>152.03</ele>
        <time>2019-05-17T23:37:45Z</time>
      </trkpt>
      <trkpt lat="39.71504" lon="-8.54542">
        <ele>152.03</ele>
        <time>2019-05-17T23:38:25Z</time>
      </trkpt>
      <trkpt lat="39.71502" lon="-8.54546">
        <ele>152.03</ele>
        <time>2019-05-17T23:39:07Z</time>
      </trkpt>
      <trkpt lat="39.71502" lon="-8.54545">
        <ele>151.54</ele>
        <time>2019-05-17T23:39:51Z</time>
      </trkpt>
      <trkpt lat="39.71502" lon="-8.54545">
        <ele>151.06</ele>
        <time>2019-05-17T23:40:33Z</time>
      </trkpt>
      <trkpt lat="39.71503" lon="-8.54542">
        <ele>151.06</ele>
        <time>2019-05-17T23:41:22Z</time>
      </trkpt>
      <trkpt lat="39.71503" lon="-8.54544">
        <ele>150.58</ele>
        <time>2019-05-17T23:42:06Z</time>
      </trkpt>
      <trkpt lat="39.71505" lon="-8.54544">
        <ele>150.58</ele>
        <time>2019-05-17T23:42:47Z</time>
      </trkpt>
      <trkpt lat="39.71505" lon="-8.54547">
        <ele>151.06</ele>
        <time>2019-05-17T23:43:24Z</time>
      </trkpt>
      <trkpt lat="39.71504" lon="-8.54542">
        <ele>150.1</ele>
        <time>2019-05-17T23:43:56Z</time>
      </trkpt>
      <trkpt lat="39.71502" lon="-8.54539">
        <ele>150.1</ele>
        <time>2019-05-17T23:44:32Z</time>
      </trkpt>
      <trkpt lat="39.71503" lon="-8.5454">
        <ele>150.58</ele>
        <time>2019-05-17T23:45:11Z</time>
      </trkpt>
      <trkpt lat="39.71501" lon="-8.54536">
        <ele>150.58</ele>
        <time>2019-05-17T23:45:56Z</time>
      </trkpt>
      <trkpt lat="39.71504" lon="-8.54545">
        <ele>150.58</ele>
        <time>2019-05-17T23:46:31Z</time>
      </trkpt>
      <trkpt lat="39.7151" lon="-8.54549">
        <ele>150.58</ele>
        <time>2019-05-17T23:47:00Z</time>
      </trkpt>
      <trkpt lat="39.71512" lon="-8.54554">
        <ele>150.58</ele>
        <time>2019-05-17T23:47:27Z</time>
      </trkpt>
      <trkpt lat="39.71506" lon="-8.5455">
        <ele>150.58</ele>
        <time>2019-05-17T23:47:53Z</time>
      </trkpt>
      <trkpt lat="39.71504" lon="-8.54549">
        <ele>150.1</ele>
        <time>2019-05-17T23:48:26Z</time>
      </trkpt>
      <trkpt lat="39.71501" lon="-8.5454">
        <ele>150.1</ele>
        <time>2019-05-17T23:49:04Z</time>
      </trkpt>
      <trkpt lat="39.715" lon="-8.5454">
        <ele>150.58</ele>
        <time>2019-05-17T23:49:40Z</time>
      </trkpt>
      <trkpt lat="39.71502" lon="-8.54546">
        <ele>150.1</ele>
        <time>2019-05-17T23:50:13Z</time>
      </trkpt>
      <trkpt lat="39.71499" lon="-8.54539">
        <ele>150.58</ele>
        <time>2019-05-17T23:50:46Z</time>
      </trkpt>
      <trkpt lat="39.715" lon="-8.54536">
        <ele>150.1</ele>
        <time>2019-05-17T23:51:21Z</time>
      </trkpt>
      <trkpt lat="39.71503" lon="-8.54538">
        <ele>150.58</ele>
        <time>2019-05-17T23:51:51Z</time>
      </trkpt>
      <trkpt lat="39.71504" lon="-8.54542">
        <ele>150.1</ele>
        <time>2019-05-17T23:52:31Z</time>
      </trkpt>
      <trkpt lat="39.71501" lon="-8.54541">
        <ele>150.1</ele>
        <time>2019-05-17T23:53:15Z</time>
      </trkpt>
      <trkpt lat="39.71501" lon="-8.54545">
        <ele>150.58</ele>
        <time>2019-05-17T23:54:02Z</time>
      </trkpt>
      <trkpt lat="39.71501" lon="-8.54543">
        <ele>150.1</ele>
        <time>2019-05-17T23:54:38Z</time>
      </trkpt>
      <trkpt lat="39.71495" lon="-8.54537">
        <ele>150.1</ele>
        <time>2019-05-17T23:55:18Z</time>
      </trkpt>
      <trkpt lat="39.71498" lon="-8.54537">
        <ele>150.58</ele>
        <time>2019-05-17T23:56:03Z</time>
      </trkpt>
      <trkpt lat="39.71498" lon="-8.5454">
        <ele>150.1</ele>
        <time>2019-05-17T23:56:44Z</time>
      </trkpt>
      <trkpt lat="39.71501" lon="-8.5454">
        <ele>150.1</ele>
        <time>2019-05-17T23:57:18Z</time>
      </trkpt>
      <trkpt lat="39.71507" lon="-8.54546">
        <ele>150.58</ele>
        <time>2019-05-17T23:57:52Z</time>
      </trkpt>
      <trkpt lat="39.71507" lon="-8.54549">
        <ele>150.1</ele>
        <time>2019-05-17T23:58:24Z</time>
      </trkpt>
      <trkpt lat="39.71505" lon="-8.54549">
        <ele>149.14</ele>
        <time>2019-05-17T23:59:03Z</time>
      </trkpt>
      <trkpt lat="39.71502" lon="-8.54549">
        <ele>149.14</ele>
        <time>2019-05-17T23:59:51Z</time>
      </trkpt>
      <trkpt lat="39.71503" lon="-8.5455">
        <ele>148.66</ele>
        <time>2019-05-18T00:00:28Z</time>
      </trkpt>
      <trkpt lat="39.71501" lon="-8.54547">
        <ele>147.7</ele>
        <time>2019-05-18T00:01:01Z</time>
      </trkpt>
      <trkpt lat="39.715" lon="-8.54546">
        <ele>148.18</ele>
        <time>2019-05-18T00:01:29Z</time>
      </trkpt>
      <trkpt lat="39.715" lon="-8.54543">
        <ele>147.7</ele>
        <time>2019-05-18T00:02:05Z</time>
      </trkpt>
      <trkpt lat="39.715" lon="-8.54543">
        <ele>147.22</ele>
        <time>2019-05-18T00:02:37Z</time>
      </trkpt>
      <trkpt lat="39.71503" lon="-8.54542">
        <ele>146.74</ele>
        <time>2019-05-18T00:03:09Z</time>
      </trkpt>
      <trkpt lat="39.71503" lon="-8.54551">
        <ele>146.74</ele>
        <time>2019-05-18T00:03:40Z</time>
      </trkpt>
      <trkpt lat="39.71501" lon="-8.5455">
        <ele>146.26</ele>
        <time>2019-05-18T00:04:12Z</time>
      </trkpt>
      <trkpt lat="39.71503" lon="-8.54541">
        <ele>145.78</ele>
        <time>2019-05-18T00:04:43Z</time>
      </trkpt>
      <trkpt lat="39.71503" lon="-8.54544">
        <ele>146.26</ele>
        <time>2019-05-18T00:05:16Z</time>
      </trkpt>
      <trkpt lat="39.71498" lon="-8.54546">
        <ele>146.26</ele>
        <time>2019-05-18T00:05:52Z</time>
      </trkpt>
      <trkpt lat="39.715" lon="-8.54541">
        <ele>145.78</ele>
        <time>2019-05-18T00:06:37Z</time>
      </trkpt>
      <trkpt lat="39.71501" lon="-8.54545">
        <ele>145.3</ele>
        <time>2019-05-18T00:07:12Z</time>
      </trkpt>
      <trkpt lat="39.71507" lon="-8.54551">
        <ele>144.82</ele>
        <time>2019-05-18T00:07:44Z</time>
      </trkpt>
      <trkpt lat="39.71504" lon="-8.54547">
        <ele>144.82</ele>
        <time>2019-05-18T00:08:15Z</time>
      </trkpt>
      <trkpt lat="39.71506" lon="-8.54538">
        <ele>145.3</ele>
        <time>2019-05-18T00:08:53Z</time>
      </trkpt>
      <trkpt lat="39.71503" lon="-8.54543">
        <ele>145.3</ele>
        <time>2019-05-18T00:09:28Z</time>
      </trkpt>
      <trkpt lat="39.71497" lon="-8.54533">
        <ele>145.3</ele>
        <time>2019-05-18T00:10:06Z</time>
      </trkpt>
      <trkpt lat="39.71496" lon="-8.54536">
        <ele>145.3</ele>
        <time>2019-05-18T00:10:50Z</time>
      </trkpt>
      <trkpt lat="39.71499" lon="-8.54542">
        <ele>146.26</ele>
        <time>2019-05-18T00:11:27Z</time>
      </trkpt>
      <trkpt lat="39.71497" lon="-8.5454">
        <ele>146.26</ele>
        <time>2019-05-18T00:11:57Z</time>
      </trkpt>
      <trkpt lat="39.71494" lon="-8.54531">
        <ele>146.26</ele>
        <time>2019-05-18T00:12:30Z</time>
      </trkpt>
      <trkpt lat="39.71491" lon="-8.54529">
        <ele>146.26</ele>
        <time>2019-05-18T00:13:04Z</time>
      </trkpt>
      <trkpt lat="39.71492" lon="-8.54525">
        <ele>146.26</ele>
        <time>2019-05-18T00:13:38Z</time>
      </trkpt>
      <trkpt lat="39.71495" lon="-8.54524">
        <ele>146.74</ele>
        <time>2019-05-18T00:14:12Z</time>
      </trkpt>
      <trkpt lat="39.71508" lon="-8.54534">
        <ele>146.74</ele>
        <time>2019-05-18T00:14:44Z</time>
      </trkpt>
      <trkpt lat="39.71501" lon="-8.54534">
        <ele>147.22</ele>
        <time>2019-05-18T00:15:18Z</time>
      </trkpt>
      <trkpt lat="39.71498" lon="-8.54537">
        <ele>147.22</ele>
        <time>2019-05-18T00:15:48Z</time>
      </trkpt>
      <trkpt lat="39.71502" lon="-8.54539">
        <ele>147.22</ele>
        <time>2019-05-18T00:16:18Z</time>
      </trkpt>
      <trkpt lat="39.71506" lon="-8.54542">
        <ele>147.7</ele>
        <time>2019-05-18T00:16:47Z</time>
      </trkpt>
      <trkpt lat="39.71507" lon="-8.54549">
        <ele>147.22</ele>
        <time>2019-05-18T00:17:20Z</time>
      </trkpt>
      <trkpt lat="39.71501" lon="-8.54542">
        <ele>146.74</ele>
        <time>2019-05-18T00:17:57Z</time>
      </trkpt>
      <trkpt lat="39.71501" lon="-8.54543">
        <ele>146.74</ele>
        <time>2019-05-18T00:18:32Z</time>
      </trkpt>
      <trkpt lat="39.71503" lon="-8.54538">
        <ele>147.22</ele>
        <time>2019-05-18T00:19:15Z</time>
      </trkpt>
      <trkpt lat="39.71501" lon="-8.54539">
        <ele>146.74</ele>
        <time>2019-05-18T00:19:57Z</time>
      </trkpt>
      <trkpt lat="39.71497" lon="-8.54529">
        <ele>146.74</ele>
        <time>2019-05-18T00:20:34Z</time>
      </trkpt>
      <trkpt lat="39.71497" lon="-8.54518">
        <ele>146.74</ele>
        <time>2019-05-18T00:21:14Z</time>
      </trkpt>
      <trkpt lat="39.71497" lon="-8.54514">
        <ele>146.74</ele>
        <time>2019-05-18T00:21:45Z</time>
      </trkpt>
      <trkpt lat="39.71496" lon="-8.54522">
        <ele>147.22</ele>
        <time>2019-05-18T00:22:14Z</time>
      </trkpt>
      <trkpt lat="39.71494" lon="-8.54526">
        <ele>147.22</ele>
        <time>2019-05-18T00:22:45Z</time>
      </trkpt>
      <trkpt lat="39.71502" lon="-8.54536">
        <ele>147.22</ele>
        <time>2019-05-18T00:23:16Z</time>
      </trkpt>
      <trkpt lat="39.71501" lon="-8.54525">
        <ele>146.74</ele>
        <time>2019-05-18T00:23:47Z</time>
      </trkpt>
      <trkpt lat="39.71499" lon="-8.54527">
        <ele>146.74</ele>
        <time>2019-05-18T00:24:15Z</time>
      </trkpt>
      <trkpt lat="39.71503" lon="-8.54536">
        <ele>146.74</ele>
        <time>2019-05-18T00:24:41Z</time>
      </trkpt>
      <trkpt lat="39.71508" lon="-8.54542">
        <ele>146.26</ele>
        <time>2019-05-18T00:25:06Z</time>
      </trkpt>
      <trkpt lat="39.71503" lon="-8.54534">
        <ele>146.74</ele>
        <time>2019-05-18T00:25:36Z</time>
      </trkpt>
      <trkpt lat="39.71508" lon="-8.54538">
        <ele>146.74</ele>
        <time>2019-05-18T00:26:06Z</time>
      </trkpt>
      <trkpt lat="39.71505" lon="-8.5453">
        <ele>146.74</ele>
        <time>2019-05-18T00:26:44Z</time>
      </trkpt>
      <trkpt lat="39.715" lon="-8.5452">
        <ele>146.74</ele>
        <time>2019-05-18T00:27:15Z</time>
      </trkpt>
      <trkpt lat="39.71498" lon="-8.54522">
        <ele>147.7</ele>
        <time>2019-05-18T00:27:39Z</time>
      </trkpt>
      <trkpt lat="39.71493" lon="-8.54515">
        <ele>148.18</ele>
        <time>2019-05-18T00:28:14Z</time>
      </trkpt>
      <trkpt lat="39.71499" lon="-8.54518">
        <ele>148.66</ele>
        <time>2019-05-18T00:28:54Z</time>
      </trkpt>
      <trkpt lat="39.71499" lon="-8.54523">
        <ele>149.62</ele>
        <time>2019-05-18T00:29:33Z</time>
      </trkpt>
      <trkpt lat="39.71497" lon="-8.54532">
        <ele>149.62</ele>
        <time>2019-05-18T00:30:04Z</time>
      </trkpt>
      <trkpt lat="39.71497" lon="-8.54548">
        <ele>150.58</ele>
        <time>2019-05-18T00:30:39Z</time>
      </trkpt>
      <trkpt lat="39.71498" lon="-8.54541">
        <ele>150.1</ele>
        <time>2019-05-18T00:31:16Z</time>
      </trkpt>
      <trkpt lat="39.715" lon="-8.54546">
        <ele>151.06</ele>
        <time>2019-05-18T00:31:53Z</time>
      </trkpt>
      <trkpt lat="39.71497" lon="-8.54553">
        <ele>150.58</ele>
        <time>2019-05-18T00:32:27Z</time>
      </trkpt>
      <trkpt lat="39.71492" lon="-8.54544">
        <ele>151.06</ele>
        <time>2019-05-18T00:33:04Z</time>
      </trkpt>
      <trkpt lat="39.71496" lon="-8.54544">
        <ele>151.54</ele>
        <time>2019-05-18T00:33:41Z</time>
      </trkpt>
      <trkpt lat="39.71499" lon="-8.54547">
        <ele>151.54</ele>
        <time>2019-05-18T00:34:25Z</time>
      </trkpt>
      <trkpt lat="39.71505" lon="-8.54541">
        <ele>151.54</ele>
        <time>2019-05-18T00:35:02Z</time>
      </trkpt>
      <trkpt lat="39.715" lon="-8.54542">
        <ele>151.54</ele>
        <time>2019-05-18T00:35:36Z</time>
      </trkpt>
      <trkpt lat="39.71499" lon="-8.54542">
        <ele>151.06</ele>
        <time>2019-05-18T00:36:06Z</time>
      </trkpt>
      <trkpt lat="39.71502" lon="-8.5454">
        <ele>151.54</ele>
        <time>2019-05-18T00:36:42Z</time>
      </trkpt>
      <trkpt lat="39.71496" lon="-8.5454">
        <ele>151.54</ele>
        <time>2019-05-18T00:37:11Z</time>
      </trkpt>
      <trkpt lat="39.7149" lon="-8.54535">
        <ele>151.54</ele>
        <time>2019-05-18T00:37:42Z</time>
      </trkpt>
      <trkpt lat="39.71498" lon="-8.54542">
        <ele>152.03</ele>
        <time>2019-05-18T00:38:09Z</time>
      </trkpt>
      <trkpt lat="39.71501" lon="-8.54541">
        <ele>152.03</ele>
        <time>2019-05-18T00:38:43Z</time>
      </trkpt>
      <trkpt lat="39.71504" lon="-8.54545">
        <ele>152.03</ele>
        <time>2019-05-18T00:39:24Z</time>
      </trkpt>
      <trkpt lat="39.71497" lon="-8.54532">
        <ele>152.03</ele>
        <time>2019-05-18T00:40:03Z</time>
      </trkpt>
      <trkpt lat="39.71499" lon="-8.54532">
        <ele>151.54</ele>
        <time>2019-05-18T00:40:39Z</time>
      </trkpt>
      <trkpt lat="39.71502" lon="-8.54536">
        <ele>151.54</ele>
        <time>2019-05-18T00:41:10Z</time>
      </trkpt>
      <trkpt lat="39.71503" lon="-8.54544">
        <ele>151.54</ele>
        <time>2019-05-18T00:41:41Z</time>
      </trkpt>
      <trkpt lat="39.71507" lon="-8.54536">
        <ele>152.03</ele>
        <time>2019-05-18T00:42:12Z</time>
      </trkpt>
      <trkpt lat="39.71508" lon="-8.54534">
        <ele>151.54</ele>
        <time>2019-05-18T00:42:36Z</time>
      </trkpt>
      <trkpt lat="39.71503" lon="-8.54535">
        <ele>152.03</ele>
        <time>2019-05-18T00:43:05Z</time>
      </trkpt>
      <trkpt lat="39.71502" lon="-8.54534">
        <ele>151.54</ele>
        <time>2019-05-18T00:43:42Z</time>
      </trkpt>
      <trkpt lat="39.71503" lon="-8.54541">
        <ele>151.06</ele>
        <time>2019-05-18T00:44:12Z</time>
      </trkpt>
      <trkpt lat="39.71502" lon="-8.54536">
        <ele>150.58</ele>
        <time>2019-05-18T00:44:41Z</time>
      </trkpt>
      <trkpt lat="39.71507" lon="-8.54537">
        <ele>150.1</ele>
        <time>2019-05-18T00:45:15Z</time>
      </trkpt>
      <trkpt lat="39.71501" lon="-8.54539">
        <ele>150.1</ele>
        <time>2019-05-18T00:45:50Z</time>
      </trkpt>
      <trkpt lat="39.71507" lon="-8.54543">
        <ele>149.14</ele>
        <time>2019-05-18T00:46:27Z</time>
      </trkpt>
      <trkpt lat="39.71508" lon="-8.54541">
        <ele>149.62</ele>
        <time>2019-05-18T00:47:04Z</time>
      </trkpt>
      <trkpt lat="39.71506" lon="-8.54543">
        <ele>149.14</ele>
        <time>2019-05-18T00:47:49Z</time>
      </trkpt>
      <trkpt lat="39.71505" lon="-8.54535">
        <ele>149.62</ele>
        <time>2019-05-18T00:48:25Z</time>
      </trkpt>
      <trkpt lat="39.71506" lon="-8.54538">
        <ele>149.14</ele>
        <time>2019-05-18T00:49:01Z</time>
      </trkpt>
      <trkpt lat="39.71502" lon="-8.54535">
        <ele>149.14</ele>
        <time>2019-05-18T00:49:45Z</time>
      </trkpt>
      <trkpt lat="39.71502" lon="-8.54539">
        <ele>149.14</ele>
        <time>2019-05-18T00:50:25Z</time>
      </trkpt>
      <trkpt lat="39.71505" lon="-8.54539">
        <ele>149.14</ele>
        <time>2019-05-18T00:51:04Z</time>
      </trkpt>
      <trkpt lat="39.71508" lon="-8.54548">
        <ele>149.62</ele>
        <time>2019-05-18T00:51:27Z</time>
      </trkpt>
      <trkpt lat="39.71501" lon="-8.54541">
        <ele>149.14</ele>
        <time>2019-05-18T00:51:59Z</time>
      </trkpt>
      <trkpt lat="39.71501" lon="-8.54543">
        <ele>149.62</ele>
        <time>2019-05-18T00:52:30Z</time>
      </trkpt>
      <trkpt lat="39.71504" lon="-8.54536">
        <ele>149.14</ele>
        <time>2019-05-18T00:53:06Z</time>
      </trkpt>
      <trkpt lat="39.71506" lon="-8.54541">
        <ele>148.66</ele>
        <time>2019-05-18T00:53:39Z</time>
      </trkpt>
      <trkpt lat="39.71503" lon="-8.54542">
        <ele>148.18</ele>
        <time>2019-05-18T00:54:08Z</time>
      </trkpt>
      <trkpt lat="39.71497" lon="-8.54538">
        <ele>148.18</ele>
        <time>2019-05-18T00:54:40Z</time>
      </trkpt>
      <trkpt lat="39.71499" lon="-8.54537">
        <ele>147.7</ele>
        <time>2019-05-18T00:55:14Z</time>
      </trkpt>
      <trkpt lat="39.71502" lon="-8.54537">
        <ele>147.22</ele>
        <time>2019-05-18T00:55:48Z</time>
      </trkpt>
      <trkpt lat="39.71502" lon="-8.54528">
        <ele>146.74</ele>
        <time>2019-05-18T00:56:20Z</time>
      </trkpt>
      <trkpt lat="39.71495" lon="-8.54516">
        <ele>147.22</ele>
        <time>2019-05-18T00:57:02Z</time>
      </trkpt>
      <trkpt lat="39.71494" lon="-8.54518">
        <ele>147.22</ele>
        <time>2019-05-18T00:57:36Z</time>
      </trkpt>
      <trkpt lat="39.71501" lon="-8.54542">
        <ele>147.7</ele>
        <time>2019-05-18T00:58:10Z</time>
      </trkpt>
      <trkpt lat="39.71501" lon="-8.5454">
        <ele>147.22</ele>
        <time>2019-05-18T00:58:45Z</time>
      </trkpt>
      <trkpt lat="39.71503" lon="-8.54539">
        <ele>147.22</ele>
        <time>2019-05-18T00:59:34Z</time>
      </trkpt>
      <trkpt lat="39.71506" lon="-8.54538">
        <ele>147.22</ele>
        <time>2019-05-18T01:00:10Z</time>
      </trkpt>
      <trkpt lat="39.71506" lon="-8.54537">
        <ele>147.22</ele>
        <time>2019-05-18T01:00:42Z</time>
      </trkpt>
      <trkpt lat="39.71502" lon="-8.54543">
        <ele>146.26</ele>
        <time>2019-05-18T01:01:18Z</time>
      </trkpt>
      <trkpt lat="39.71504" lon="-8.5454">
        <ele>145.78</ele>
        <time>2019-05-18T01:01:59Z</time>
      </trkpt>
      <trkpt lat="39.71502" lon="-8.54542">
        <ele>146.74</ele>
        <time>2019-05-18T01:02:38Z</time>
      </trkpt>
      <trkpt lat="39.71502" lon="-8.54543">
        <ele>145.78</ele>
        <time>2019-05-18T01:03:07Z</time>
      </trkpt>
      <trkpt lat="39.71504" lon="-8.54538">
        <ele>144.82</ele>
        <time>2019-05-18T01:03:52Z</time>
      </trkpt>
      <trkpt lat="39.71506" lon="-8.54548">
        <ele>146.26</ele>
        <time>2019-05-18T01:04:22Z</time>
      </trkpt>
      <trkpt lat="39.71506" lon="-8.54542">
        <ele>145.3</ele>
        <time>2019-05-18T01:04:48Z</time>
      </trkpt>
      <trkpt lat="39.71507" lon="-8.54539">
        <ele>145.78</ele>
        <time>2019-05-18T01:05:11Z</time>
      </trkpt>
      <trkpt lat="39.71501" lon="-8.54534">
        <ele>145.3</ele>
        <time>2019-05-18T01:05:44Z</time>
      </trkpt>
      <trkpt lat="39.71501" lon="-8.54538">
        <ele>145.78</ele>
        <time>2019-05-18T01:06:16Z</time>
      </trkpt>
      <trkpt lat="39.71505" lon="-8.54544">
        <ele>145.3</ele>
        <time>2019-05-18T01:06:54Z</time>
      </trkpt>
      <trkpt lat="39.71502" lon="-8.54542">
        <ele>145.78</ele>
        <time>2019-05-18T01:07:33Z</time>
      </trkpt>
      <trkpt lat="39.71508" lon="-8.54551">
        <ele>146.74</ele>
        <time>2019-05-18T01:08:13Z</time>
      </trkpt>
      <trkpt lat="39.71507" lon="-8.5455">
        <ele>147.22</ele>
        <time>2019-05-18T01:08:42Z</time>
      </trkpt>
      <trkpt lat="39.7151" lon="-8.54551">
        <ele>146.74</ele>
        <time>2019-05-18T01:09:17Z</time>
      </trkpt>
      <trkpt lat="39.71506" lon="-8.54551">
        <ele>147.7</ele>
        <time>2019-05-18T01:09:54Z</time>
      </trkpt>
      <trkpt lat="39.71504" lon="-8.54546">
        <ele>147.7</ele>
        <time>2019-05-18T01:10:31Z</time>
      </trkpt>
      <trkpt lat="39.71501" lon="-8.54544">
        <ele>148.18</ele>
        <time>2019-05-18T01:11:06Z</time>
      </trkpt>
      <trkpt lat="39.71501" lon="-8.54543">
        <ele>147.7</ele>
        <time>2019-05-18T01:11:44Z</time>
      </trkpt>
      <trkpt lat="39.71501" lon="-8.54537">
        <ele>147.22</ele>
        <time>2019-05-18T01:12:16Z</time>
      </trkpt>
      <trkpt lat="39.71504" lon="-8.54539">
        <ele>147.22</ele>
        <time>2019-05-18T01:12:55Z</time>
      </trkpt>
      <trkpt lat="39.71505" lon="-8.54541">
        <ele>147.22</ele>
        <time>2019-05-18T01:13:30Z</time>
      </trkpt>
      <trkpt lat="39.71508" lon="-8.54543">
        <ele>147.22</ele>
        <time>2019-05-18T01:14:05Z</time>
      </trkpt>
      <trkpt lat="39.71505" lon="-8.54537">
        <ele>147.22</ele>
        <time>2019-05-18T01:14:46Z</time>
      </trkpt>
      <trkpt lat="39.715" lon="-8.54535">
        <ele>147.7</ele>
        <time>2019-05-18T01:15:20Z</time>
      </trkpt>
      <trkpt lat="39.71499" lon="-8.54531">
        <ele>147.7</ele>
        <time>2019-05-18T01:15:33Z</time>
      </trkpt>
      <trkpt lat="39.715" lon="-8.54538">
        <ele>147.7</ele>
        <time>2019-05-18T01:15:57Z</time>
      </trkpt>
      <trkpt lat="39.71505" lon="-8.5455">
        <ele>147.22</ele>
        <time>2019-05-18T01:16:37Z</time>
      </trkpt>
      <trkpt lat="39.71502" lon="-8.54542">
        <ele>148.18</ele>
        <time>2019-05-18T01:17:19Z</time>
      </trkpt>
      <trkpt lat="39.71503" lon="-8.54542">
        <ele>147.7</ele>
        <time>2019-05-18T01:18:03Z</time>
      </trkpt>
      <trkpt lat="39.71502" lon="-8.54542">
        <ele>148.18</ele>
        <time>2019-05-18T01:18:39Z</time>
      </trkpt>
      <trkpt lat="39.71503" lon="-8.54548">
        <ele>148.18</ele>
        <time>2019-05-18T01:19:13Z</time>
      </trkpt>
      <trkpt lat="39.71509" lon="-8.54552">
        <ele>148.66</ele>
        <time>2019-05-18T01:19:44Z</time>
      </trkpt>
      <trkpt lat="39.71508" lon="-8.54551">
        <ele>148.66</ele>
        <time>2019-05-18T01:20:17Z</time>
      </trkpt>
      <trkpt lat="39.71507" lon="-8.54552">
        <ele>148.18</ele>
        <time>2019-05-18T01:20:45Z</time>
      </trkpt>
      <trkpt lat="39.71502" lon="-8.54551">
        <ele>148.66</ele>
        <time>2019-05-18T01:21:15Z</time>
      </trkpt>
      <trkpt lat="39.71504" lon="-8.54556">
        <ele>148.66</ele>
        <time>2019-05-18T01:21:56Z</time>
      </trkpt>
      <trkpt lat="39.71499" lon="-8.54546">
        <ele>148.66</ele>
        <time>2019-05-18T01:22:34Z</time>
      </trkpt>
      <trkpt lat="39.71497" lon="-8.54548">
        <ele>148.66</ele>
        <time>2019-05-18T01:23:17Z</time>
      </trkpt>
      <trkpt lat="39.71499" lon="-8.54545">
        <ele>148.66</ele>
        <time>2019-05-18T01:24:15Z</time>
      </trkpt>
      <trkpt lat="39.71502" lon="-8.54548">
        <ele>148.18</ele>
        <time>2019-05-18T01:25:04Z</time>
      </trkpt>
      <trkpt lat="39.715" lon="-8.54544">
        <ele>147.7</ele>
        <time>2019-05-18T01:25:33Z</time>
      </trkpt>
      <trkpt lat="39.715" lon="-8.54547">
        <ele>147.7</ele>
        <time>2019-05-18T01:26:09Z</time>
      </trkpt>
      <trkpt lat="39.71497" lon="-8.54537">
        <ele>147.7</ele>
        <time>2019-05-18T01:26:40Z</time>
      </trkpt>
      <trkpt lat="39.71493" lon="-8.54537">
        <ele>147.22</ele>
        <time>2019-05-18T01:27:15Z</time>
      </trkpt>
      <trkpt lat="39.71494" lon="-8.54532">
        <ele>147.22</ele>
        <time>2019-05-18T01:27:42Z</time>
      </trkpt>
      <trkpt lat="39.71496" lon="-8.54535">
        <ele>147.7</ele>
        <time>2019-05-18T01:28:12Z</time>
      </trkpt>
      <trkpt lat="39.71497" lon="-8.54533">
        <ele>147.7</ele>
        <time>2019-05-18T01:28:49Z</time>
      </trkpt>
      <trkpt lat="39.71504" lon="-8.5454">
        <ele>147.22</ele>
        <time>2019-05-18T01:29:22Z</time>
      </trkpt>
      <trkpt lat="39.71503" lon="-8.5454">
        <ele>147.22</ele>
        <time>2019-05-18T01:29:55Z</time>
      </trkpt>
      <trkpt lat="39.71503" lon="-8.54538">
        <ele>147.22</ele>
        <time>2019-05-18T01:30:34Z</time>
      </trkpt>
      <trkpt lat="39.71503" lon="-8.54542">
        <ele>147.22</ele>
        <time>2019-05-18T01:31:14Z</time>
      </trkpt>
      <trkpt lat="39.71503" lon="-8.54542">
        <ele>147.22</ele>
        <time>2019-05-18T01:31:44Z</time>
      </trkpt>
      <trkpt lat="39.715" lon="-8.54548">
        <ele>147.22</ele>
        <time>2019-05-18T01:32:11Z</time>
      </trkpt>
      <trkpt lat="39.715" lon="-8.54548">
        <ele>147.22</ele>
        <time>2019-05-18T01:32:43Z</time>
      </trkpt>
      <trkpt lat="39.715" lon="-8.54545">
        <ele>147.7</ele>
        <time>2019-05-18T01:33:13Z</time>
      </trkpt>
      <trkpt lat="39.71501" lon="-8.54545">
        <ele>147.7</ele>
        <time>2019-05-18T01:33:55Z</time>
      </trkpt>
      <trkpt lat="39.71494" lon="-8.54543">
        <ele>147.7</ele>
        <time>2019-05-18T01:34:27Z</time>
      </trkpt>
      <trkpt lat="39.71497" lon="-8.54539">
        <ele>147.22</ele>
        <time>2019-05-18T01:35:01Z</time>
      </trkpt>
      <trkpt lat="39.71498" lon="-8.54539">
        <ele>147.22</ele>
        <time>2019-05-18T01:35:39Z</time>
      </trkpt>
      <trkpt lat="39.715" lon="-8.54537">
        <ele>146.74</ele>
        <time>2019-05-18T01:36:22Z</time>
      </trkpt>
      <trkpt lat="39.71499" lon="-8.54535">
        <ele>147.22</ele>
        <time>2019-05-18T01:37:08Z</time>
      </trkpt>
      <trkpt lat="39.71506" lon="-8.54544">
        <ele>147.22</ele>
        <time>2019-05-18T01:37:45Z</time>
      </trkpt>
      <trkpt lat="39.71507" lon="-8.54544">
        <ele>147.22</ele>
        <time>2019-05-18T01:38:19Z</time>
      </trkpt>
      <trkpt lat="39.71507" lon="-8.54551">
        <ele>147.22</ele>
        <time>2019-05-18T01:38:49Z</time>
      </trkpt>
      <trkpt lat="39.71502" lon="-8.54548">
        <ele>147.7</ele>
        <time>2019-05-18T01:39:20Z</time>
      </trkpt>
      <trkpt lat="39.715" lon="-8.54544">
        <ele>147.7</ele>
        <time>2019-05-18T01:39:57Z</time>
      </trkpt>
      <trkpt lat="39.71505" lon="-8.54542">
        <ele>148.18</ele>
        <time>2019-05-18T01:40:29Z</time>
      </trkpt>
      <trkpt lat="39.71504" lon="-8.54543">
        <ele>148.18</ele>
        <time>2019-05-18T01:41:05Z</time>
      </trkpt>
      <trkpt lat="39.71501" lon="-8.54542">
        <ele>148.18</ele>
        <time>2019-05-18T01:41:37Z</time>
      </trkpt>
      <trkpt lat="39.71507" lon="-8.54546">
        <ele>148.66</ele>
        <time>2019-05-18T01:42:09Z</time>
      </trkpt>
      <trkpt lat="39.71505" lon="-8.54543">
        <ele>148.66</ele>
        <time>2019-05-18T01:42:42Z</time>
      </trkpt>
      <trkpt lat="39.71506" lon="-8.54542">
        <ele>149.14</ele>
        <time>2019-05-18T01:43:17Z</time>
      </trkpt>
      <trkpt lat="39.71501" lon="-8.54543">
        <ele>149.14</ele>
        <time>2019-05-18T01:43:58Z</time>
      </trkpt>
      <trkpt lat="39.71504" lon="-8.54549">
        <ele>149.14</ele>
        <time>2019-05-18T01:44:35Z</time>
      </trkpt>
      <trkpt lat="39.71502" lon="-8.54544">
        <ele>148.66</ele>
        <time>2019-05-18T01:45:15Z</time>
      </trkpt>
      <trkpt lat="39.71502" lon="-8.54545">
        <ele>149.14</ele>
        <time>2019-05-18T01:45:51Z</time>
      </trkpt>
      <trkpt lat="39.71508" lon="-8.54547">
        <ele>149.14</ele>
        <time>2019-05-18T01:46:32Z</time>
      </trkpt>
      <trkpt lat="39.7151" lon="-8.54544">
        <ele>148.66</ele>
        <time>2019-05-18T01:47:12Z</time>
      </trkpt>
      <trkpt lat="39.71513" lon="-8.54539">
        <ele>149.14</ele>
        <time>2019-05-18T01:47:49Z</time>
      </trkpt>
      <trkpt lat="39.71511" lon="-8.54545">
        <ele>148.66</ele>
        <time>2019-05-18T01:48:24Z</time>
      </trkpt>
      <trkpt lat="39.71504" lon="-8.54547">
        <ele>148.66</ele>
        <time>2019-05-18T01:49:06Z</time>
      </trkpt>
      <trkpt lat="39.7151" lon="-8.54547">
        <ele>149.14</ele>
        <time>2019-05-18T01:49:42Z</time>
      </trkpt>
      <trkpt lat="39.71506" lon="-8.54554">
        <ele>149.62</ele>
        <time>2019-05-18T01:50:30Z</time>
      </trkpt>
      <trkpt lat="39.71511" lon="-8.54552">
        <ele>150.1</ele>
        <time>2019-05-18T01:51:14Z</time>
      </trkpt>
      <trkpt lat="39.71509" lon="-8.54548">
        <ele>150.58</ele>
        <time>2019-05-18T01:51:58Z</time>
      </trkpt>
      <trkpt lat="39.71503" lon="-8.54544">
        <ele>151.06</ele>
        <time>2019-05-18T01:52:40Z</time>
      </trkpt>
      <trkpt lat="39.71503" lon="-8.54542">
        <ele>151.06</ele>
        <time>2019-05-18T01:53:18Z</time>
      </trkpt>
      <trkpt lat="39.71504" lon="-8.54542">
        <ele>151.06</ele>
        <time>2019-05-18T01:53:48Z</time>
      </trkpt>
      <trkpt lat="39.71501" lon="-8.54541">
        <ele>151.06</ele>
        <time>2019-05-18T01:54:17Z</time>
      </trkpt>
      <trkpt lat="39.71496" lon="-8.54541">
        <ele>150.58</ele>
        <time>2019-05-18T01:54:46Z</time>
      </trkpt>
      <trkpt lat="39.71496" lon="-8.54535">
        <ele>150.58</ele>
        <time>2019-05-18T01:55:15Z</time>
      </trkpt>
      <trkpt lat="39.71498" lon="-8.54537">
        <ele>150.1</ele>
        <time>2019-05-18T01:55:49Z</time>
      </trkpt>
      <trkpt lat="39.71495" lon="-8.54533">
        <ele>150.58</ele>
        <time>2019-05-18T01:56:20Z</time>
      </trkpt>
      <trkpt lat="39.71493" lon="-8.54527">
        <ele>149.62</ele>
        <time>2019-05-18T01:56:55Z</time>
      </trkpt>
      <trkpt lat="39.71495" lon="-8.54529">
        <ele>149.14</ele>
        <time>2019-05-18T01:57:36Z</time>
      </trkpt>
      <trkpt lat="39.715" lon="-8.54539">
        <ele>148.18</ele>
        <time>2019-05-18T01:58:14Z</time>
      </trkpt>
      <trkpt lat="39.71508" lon="-8.54535">
        <ele>148.66</ele>
        <time>2019-05-18T01:58:54Z</time>
      </trkpt>
      <trkpt lat="39.715" lon="-8.5454">
        <ele>149.14</ele>
        <time>2019-05-18T01:59:49Z</time>
      </trkpt>
      <trkpt lat="39.71504" lon="-8.54542">
        <ele>149.62</ele>
        <time>2019-05-18T02:00:30Z</time>
      </trkpt>
      <trkpt lat="39.71505" lon="-8.54542">
        <ele>149.62</ele>
        <time>2019-05-18T02:01:15Z</time>
      </trkpt>
      <trkpt lat="39.7151" lon="-8.54545">
        <ele>149.62</ele>
        <time>2019-05-18T02:01:50Z</time>
      </trkpt>
      <trkpt lat="39.71506" lon="-8.54544">
        <ele>150.1</ele>
        <time>2019-05-18T02:02:25Z</time>
      </trkpt>
      <trkpt lat="39.71503" lon="-8.5454">
        <ele>149.62</ele>
        <time>2019-05-18T02:03:07Z</time>
      </trkpt>
      <trkpt lat="39.71503" lon="-8.54539">
        <ele>150.1</ele>
        <time>2019-05-18T02:04:01Z</time>
      </trkpt>
      <trkpt lat="39.71502" lon="-8.5454">
        <ele>149.62</ele>
        <time>2019-05-18T02:04:47Z</time>
      </trkpt>
      <trkpt lat="39.71504" lon="-8.54535">
        <ele>149.62</ele>
        <time>2019-05-18T02:05:33Z</time>
      </trkpt>
      <trkpt lat="39.71505" lon="-8.54535">
        <ele>150.1</ele>
        <time>2019-05-18T02:06:26Z</time>
      </trkpt>
      <trkpt lat="39.71504" lon="-8.54537">
        <ele>149.62</ele>
        <time>2019-05-18T02:07:11Z</time>
      </trkpt>
      <trkpt lat="39.71511" lon="-8.5454">
        <ele>149.62</ele>
        <time>2019-05-18T02:07:57Z</time>
      </trkpt>
      <trkpt lat="39.71507" lon="-8.54538">
        <ele>150.1</ele>
        <time>2019-05-18T02:08:43Z</time>
      </trkpt>
      <trkpt lat="39.71506" lon="-8.54541">
        <ele>150.58</ele>
        <time>2019-05-18T02:09:30Z</time>
      </trkpt>
      <trkpt lat="39.71507" lon="-8.54542">
        <ele>149.62</ele>
        <time>2019-05-18T02:10:10Z</time>
      </trkpt>
      <trkpt lat="39.71507" lon="-8.54542">
        <ele>149.62</ele>
        <time>2019-05-18T02:10:45Z</time>
      </trkpt>
      <trkpt lat="39.7151" lon="-8.54545">
        <ele>148.66</ele>
        <time>2019-05-18T02:11:29Z</time>
      </trkpt>
      <trkpt lat="39.71502" lon="-8.54541">
        <ele>148.66</ele>
        <time>2019-05-18T02:12:12Z</time>
      </trkpt>
      <trkpt lat="39.715" lon="-8.54542">
        <ele>149.14</ele>
        <time>2019-05-18T02:12:56Z</time>
      </trkpt>
      <trkpt lat="39.71502" lon="-8.54547">
        <ele>148.66</ele>
        <time>2019-05-18T02:13:30Z</time>
      </trkpt>
      <trkpt lat="39.715" lon="-8.54546">
        <ele>149.14</ele>
        <time>2019-05-18T02:14:03Z</time>
      </trkpt>
      <trkpt lat="39.71509" lon="-8.54546">
        <ele>149.14</ele>
        <time>2019-05-18T02:14:32Z</time>
      </trkpt>
      <trkpt lat="39.71506" lon="-8.54542">
        <ele>149.14</ele>
        <time>2019-05-18T02:15:12Z</time>
      </trkpt>
      <trkpt lat="39.71504" lon="-8.54542">
        <ele>149.62</ele>
        <time>2019-05-18T02:16:00Z</time>
      </trkpt>
      <trkpt lat="39.71504" lon="-8.54547">
        <ele>149.14</ele>
        <time>2019-05-18T02:16:39Z</time>
      </trkpt>
      <trkpt lat="39.71496" lon="-8.54541">
        <ele>150.1</ele>
        <time>2019-05-18T02:17:15Z</time>
      </trkpt>
      <trkpt lat="39.71506" lon="-8.54545">
        <ele>149.62</ele>
        <time>2019-05-18T02:17:41Z</time>
      </trkpt>
      <trkpt lat="39.71511" lon="-8.54547">
        <ele>150.1</ele>
        <time>2019-05-18T02:18:22Z</time>
      </trkpt>
      <trkpt lat="39.71506" lon="-8.54548">
        <ele>150.58</ele>
        <time>2019-05-18T02:19:02Z</time>
      </trkpt>
      <trkpt lat="39.71508" lon="-8.5454">
        <ele>151.06</ele>
        <time>2019-05-18T02:19:44Z</time>
      </trkpt>
      <trkpt lat="39.71512" lon="-8.5454">
        <ele>151.06</ele>
        <time>2019-05-18T02:20:25Z</time>
      </trkpt>
      <trkpt lat="39.71509" lon="-8.54542">
        <ele>151.06</ele>
        <time>2019-05-18T02:20:58Z</time>
      </trkpt>
      <trkpt lat="39.7151" lon="-8.54547">
        <ele>151.06</ele>
        <time>2019-05-18T02:21:29Z</time>
      </trkpt>
      <trkpt lat="39.71507" lon="-8.5454">
        <ele>150.58</ele>
        <time>2019-05-18T02:22:01Z</time>
      </trkpt>
      <trkpt lat="39.71513" lon="-8.54543">
        <ele>150.58</ele>
        <time>2019-05-18T02:22:36Z</time>
      </trkpt>
      <trkpt lat="39.71516" lon="-8.54546">
        <ele>150.58</ele>
        <time>2019-05-18T02:23:03Z</time>
      </trkpt>
      <trkpt lat="39.71516" lon="-8.54549">
        <ele>150.58</ele>
        <time>2019-05-18T02:23:36Z</time>
      </trkpt>
      <trkpt lat="39.7151" lon="-8.54547">
        <ele>151.06</ele>
        <time>2019-05-18T02:24:08Z</time>
      </trkpt>
      <trkpt lat="39.7151" lon="-8.54547">
        <ele>151.54</ele>
        <time>2019-05-18T02:24:46Z</time>
      </trkpt>
      <trkpt lat="39.71504" lon="-8.54548">
        <ele>151.06</ele>
        <time>2019-05-18T02:25:28Z</time>
      </trkpt>
      <trkpt lat="39.71505" lon="-8.54549">
        <ele>151.06</ele>
        <time>2019-05-18T02:26:16Z</time>
      </trkpt>
      <trkpt lat="39.71499" lon="-8.5454">
        <ele>151.54</ele>
        <time>2019-05-18T02:26:49Z</time>
      </trkpt>
      <trkpt lat="39.7149" lon="-8.54535">
        <ele>151.54</ele>
        <time>2019-05-18T02:27:17Z</time>
      </trkpt>
      <trkpt lat="39.7149" lon="-8.54537">
        <ele>151.06</ele>
        <time>2019-05-18T02:27:43Z</time>
      </trkpt>
      <trkpt lat="39.71494" lon="-8.54547">
        <ele>150.58</ele>
        <time>2019-05-18T02:28:19Z</time>
      </trkpt>
      <trkpt lat="39.71495" lon="-8.54548">
        <ele>151.06</ele>
        <time>2019-05-18T02:28:52Z</time>
      </trkpt>
      <trkpt lat="39.71501" lon="-8.54543">
        <ele>151.06</ele>
        <time>2019-05-18T02:29:31Z</time>
      </trkpt>
      <trkpt lat="39.71517" lon="-8.54554">
        <ele>150.58</ele>
        <time>2019-05-18T02:30:12Z</time>
      </trkpt>
      <trkpt lat="39.71504" lon="-8.54547">
        <ele>150.58</ele>
        <time>2019-05-18T02:30:45Z</time>
      </trkpt>
      <trkpt lat="39.71506" lon="-8.54546">
        <ele>151.06</ele>
        <time>2019-05-18T02:31:12Z</time>
      </trkpt>
      <trkpt lat="39.71503" lon="-8.54548">
        <ele>150.1</ele>
        <time>2019-05-18T02:31:35Z</time>
      </trkpt>
      <trkpt lat="39.71496" lon="-8.54534">
        <ele>150.58</ele>
        <time>2019-05-18T02:32:04Z</time>
      </trkpt>
      <trkpt lat="39.71513" lon="-8.54543">
        <ele>150.58</ele>
        <time>2019-05-18T02:32:39Z</time>
      </trkpt>
      <trkpt lat="39.71504" lon="-8.5454">
        <ele>150.58</ele>
        <time>2019-05-18T02:33:15Z</time>
      </trkpt>
      <trkpt lat="39.71502" lon="-8.54537">
        <ele>150.58</ele>
        <time>2019-05-18T02:33:44Z</time>
      </trkpt>
      <trkpt lat="39.71502" lon="-8.5454">
        <ele>151.06</ele>
        <time>2019-05-18T02:34:13Z</time>
      </trkpt>
      <trkpt lat="39.71498" lon="-8.54538">
        <ele>151.06</ele>
        <time>2019-05-18T02:34:44Z</time>
      </trkpt>
      <trkpt lat="39.71502" lon="-8.54538">
        <ele>151.54</ele>
        <time>2019-05-18T02:35:16Z</time>
      </trkpt>
      <trkpt lat="39.715" lon="-8.54525">
        <ele>151.06</ele>
        <time>2019-05-18T02:35:46Z</time>
      </trkpt>
      <trkpt lat="39.71499" lon="-8.54528">
        <ele>151.06</ele>
        <time>2019-05-18T02:36:24Z</time>
      </trkpt>
      <trkpt lat="39.71502" lon="-8.54542">
        <ele>151.06</ele>
        <time>2019-05-18T02:36:59Z</time>
      </trkpt>
      <trkpt lat="39.71508" lon="-8.54546">
        <ele>150.58</ele>
        <time>2019-05-18T02:37:29Z</time>
      </trkpt>
      <trkpt lat="39.71516" lon="-8.54546">
        <ele>151.06</ele>
        <time>2019-05-18T02:38:03Z</time>
      </trkpt>
      <trkpt lat="39.71517" lon="-8.54544">
        <ele>151.06</ele>
        <time>2019-05-18T02:38:32Z</time>
      </trkpt>
      <trkpt lat="39.71523" lon="-8.54537">
        <ele>152.03</ele>
        <time>2019-05-18T02:39:04Z</time>
      </trkpt>
      <trkpt lat="39.71515" lon="-8.54536">
        <ele>152.03</ele>
        <time>2019-05-18T02:39:44Z</time>
      </trkpt>
      <trkpt lat="39.71519" lon="-8.54542">
        <ele>152.51</ele>
        <time>2019-05-18T02:40:19Z</time>
      </trkpt>
      <trkpt lat="39.71525" lon="-8.54547">
        <ele>152.51</ele>
        <time>2019-05-18T02:40:52Z</time>
      </trkpt>
      <trkpt lat="39.71526" lon="-8.54547">
        <ele>152.51</ele>
        <time>2019-05-18T02:41:29Z</time>
      </trkpt>
      <trkpt lat="39.71515" lon="-8.54545">
        <ele>152.51</ele>
        <time>2019-05-18T02:41:58Z</time>
      </trkpt>
      <trkpt lat="39.82249" lon="-8.47591">
        <ele>157.79</ele>
        <time>2019-05-18T07:42:36Z</time>
      </trkpt>
      <trkpt lat="39.82248" lon="-8.47591">
        <ele>157.79</ele>
        <time>2019-05-18T07:42:55Z</time>
      </trkpt>
    </trkseg>
  </trk>
</gpx>